Observation data for Lesley on 03/13/2018      Previous  Date  Next       Current Mesonet Observations  Soil Data  Daily Summary Page  Observations in Plain Language
KLE1 130500Z 10005KT 05/M06 A3025 RMK A01 T00501061  RH  045%=      5-min Rain = 0
KLE1 130501Z 10005KT 05/M06 A3025 RMK A01 T00501061  RH  045%=      5-min Rain = 0
KLE1 130502Z 10005KT 05/M06 A3025 RMK A01 T00501061  RH  045%=      5-min Rain = 0
KLE1 130503Z 10005KT 05/M06 A3025 RMK A01 T00491061  RH  045%=      5-min Rain = 0
KLE1 130504Z 11005KT 05/M06 A3025 RMK A01 T00491061  RH  045%=      5-min Rain = 0
KLE1 130505Z 11005KT 05/M06 A3025 RMK A01 T00481061  RH  045%=      5-min Rain = 0
KLE1 130506Z 11004KT 05/M06 A3025 RMK A01 T00481061  RH  045%=      5-min Rain = 0
KLE1 130507Z 11004KT 05/M06 A3025 RMK A01 T00481061  RH  045%=      5-min Rain = 0
KLE1 130508Z 11004KT 05/M06 A3025 RMK A01 T00481061  RH  045%=      5-min Rain = 0
KLE1 130509Z 11004KT 05/M06 A3025 RMK A01 T00491060  RH  045%=      5-min Rain = 0
KLE1 130510Z 11004KT 05/M06 A3025 RMK A01 T00501060  RH  045%=      5-min Rain = 0
KLE1 130511Z 11004KT 05/M06 A3025 RMK A01 T00501060  RH  045%=      5-min Rain = 0
KLE1 130512Z 11004KT 05/M06 A3025 RMK A01 T00511060  RH  045%=      5-min Rain = 0
KLE1 130513Z 12004KT 05/M06 A3025 RMK A01 T00521060  RH  044%=      5-min Rain = 0
KLE1 130514Z 12004KT 05/M06 A3025 RMK A01 T00521060  RH  044%=      5-min Rain = 0
KLE1 130515Z 11004KT 05/M06 A3025 RMK A01 T00521060  RH  044%=      5-min Rain = 0
KLE1 130516Z 12005KT 05/M06 A3025 RMK A01 T00521060  RH  044%=      5-min Rain = 0
KLE1 130517Z 12004KT 05/M06 A3025 RMK A01 T00521060  RH  044%=      5-min Rain = 0
KLE1 130518Z 12004KT 05/M06 A3025 RMK A01 T00521060  RH  044%=      5-min Rain = 0
KLE1 130519Z 12004KT 05/M06 A3025 RMK A01 T00521060  RH  044%=      5-min Rain = 0
KLE1 130520Z 12004KT 05/M06 A3025 RMK A01 T00511060  RH  044%=      5-min Rain = 0
KLE1 130521Z 12004KT 05/M06 A3025 RMK A01 T00501061  RH  045%=      5-min Rain = 0
KLE1 130522Z 12004KT 05/M06 A3025 RMK A01 T00501060  RH  045%=      5-min Rain = 0
KLE1 130523Z 12004KT 05/M06 A3025 RMK A01 T00501060  RH  045%=      5-min Rain = 0
KLE1 130524Z 12004KT 05/M06 A3025 RMK A01 T00491061  RH  045%=      5-min Rain = 0
KLE1 130525Z 12004KT 05/M06 A3025 RMK A01 T00481061  RH  045%=      5-min Rain = 0
KLE1 130526Z 12004KT 05/M06 A3025 RMK A01 T00481061  RH  045%=      5-min Rain = 0
KLE1 130527Z 12004KT 05/M06 A3025 RMK A01 T00481061  RH  045%=      5-min Rain = 0
KLE1 130528Z 12004KT 05/M06 A3025 RMK A01 T00471061  RH  045%=      5-min Rain = 0
KLE1 130529Z 12004KT 05/M06 A3025 RMK A01 T00471061  RH  045%=      5-min Rain = 0
KLE1 130530Z 12004KT 05/M06 A3025 RMK A01 T00471060  RH  046%=      5-min Rain = 0
KLE1 130531Z 12004KT 05/M06 A3025 RMK A01 T00471061  RH  046%=      5-min Rain = 0
KLE1 130532Z 12004KT 05/M06 A3025 RMK A01 T00471061  RH  045%=      5-min Rain = 0
KLE1 130533Z 13005KT 05/M06 A3025 RMK A01 T00471061  RH  046%=      5-min Rain = 0
KLE1 130534Z 12005KT 05/M06 A3025 RMK A01 T00471061  RH  045%=      5-min Rain = 0
KLE1 130535Z 12004KT 05/M06 A3025 RMK A01 T00471061  RH  045%=      5-min Rain = 0
KLE1 130536Z 12005KT 05/M06 A3025 RMK A01 T00481061  RH  045%=      5-min Rain = 0
KLE1 130537Z 12004KT 05/M06 A3025 RMK A01 T00471061  RH  045%=      5-min Rain = 0
KLE1 130538Z 12004KT 05/M06 A3025 RMK A01 T00461061  RH  046%=      5-min Rain = 0
KLE1 130539Z 12004KT 05/M06 A3025 RMK A01 T00461061  RH  046%=      5-min Rain = 0
KLE1 130540Z 12004KT 05/M06 A3025 RMK A01 T00451061  RH  046%=      5-min Rain = 0
KLE1 130541Z 12004KT 05/M06 A3025 RMK A01 T00451061  RH  046%=      5-min Rain = 0
KLE1 130542Z 12004KT 04/M06 A3025 RMK A01 T00441061  RH  046%=      5-min Rain = 0
KLE1 130543Z 12004KT 04/M06 A3025 RMK A01 T00441060  RH  047%=      5-min Rain = 0
KLE1 130544Z 12004KT 04/M06 A3025 RMK A01 T00441061  RH  047%=      5-min Rain = 0
KLE1 130545Z 12004KT 04/M06 A3025 RMK A01 T00441060  RH  047%=      5-min Rain = 0
KLE1 130546Z 11004KT 05/M06 A3025 RMK A01 T00451059  RH  047%=      5-min Rain = 0
KLE1 130547Z 11004KT 05/M06 A3025 RMK A01 T00451060  RH  046%=      5-min Rain = 0
KLE1 130548Z 11004KT 04/M06 A3025 RMK A01 T00441060  RH  047%=      5-min Rain = 0
KLE1 130549Z 11004KT 04/M06 A3025 RMK A01 T00441060  RH  047%=      5-min Rain = 0
KLE1 130550Z 11004KT 04/M06 A3025 RMK A01 T00441060  RH  047%=      5-min Rain = 0
KLE1 130551Z 11004KT 04/M06 A3025 RMK A01 T00441060  RH  047%=      5-min Rain = 0
KLE1 130552Z 11004KT 04/M06 A3025 RMK A01 T00441060  RH  047%=      5-min Rain = 0
KLE1 130553Z 10003KT 04/M06 A3025 RMK A01 T00441060  RH  047%=      5-min Rain = 0
KLE1 130554Z 10003KT 04/M06 A3025 RMK A01 T00441060  RH  047%=      5-min Rain = 0
KLE1 130555Z 10003KT 04/M06 A3025 RMK A01 T00441060  RH  047%=      5-min Rain = 0
KLE1 130556Z 10003KT 05/M06 A3025 RMK A01 T00451059  RH  047%=      5-min Rain = 0
KLE1 130557Z 10003KT 05/M06 A3025 RMK A01 T00451059  RH  047%=      5-min Rain = 0
KLE1 130558Z 09003KT 05/M06 A3025 RMK A01 T00461059  RH  046%=      5-min Rain = 0
KLE1 130559Z 09003KT 05/M06 A3025 RMK A01 T00461059  RH  047%=      5-min Rain = 0
KLE1 130600Z 08003KT 05/M06 A3025 RMK A01 T00461059  RH  047%=      5-min Rain = 0
KLE1 130601Z 08003KT 05/M06 A3025 RMK A01 T00461059  RH  046%=      5-min Rain = 0
KLE1 130602Z 07003KT 05/M06 A3025 RMK A01 T00461059  RH  047%=      5-min Rain = 0
KLE1 130603Z 07003KT 05/M06 A3025 RMK A01 T00451059  RH  047%=      5-min Rain = 0
KLE1 130604Z 07004KT 05/M06 A3025 RMK A01 T00451058  RH  047%=      5-min Rain = 0
KLE1 130605Z 07004KT 04/M06 A3025 RMK A01 T00441058  RH  047%=      5-min Rain = 0
KLE1 130606Z 07004KT 04/M06 A3025 RMK A01 T00431059  RH  047%=      5-min Rain = 0
KLE1 130607Z 07004KT 04/M06 A3025 RMK A01 T00421059  RH  048%=      5-min Rain = 0
KLE1 130608Z 06004KT 04/M06 A3025 RMK A01 T00421058  RH  048%=      5-min Rain = 0
KLE1 130609Z 06004KT 04/M06 A3025 RMK A01 T00411059  RH  048%=      5-min Rain = 0
KLE1 130610Z 06004KT 04/M06 A3025 RMK A01 T00401059  RH  048%=      5-min Rain = 0
KLE1 130611Z 06004KT 04/M06 A3025 RMK A01 T00391060  RH  049%=      5-min Rain = 0
KLE1 130612Z 07004KT 04/M06 A3025 RMK A01 T00391059  RH  049%=      5-min Rain = 0
KLE1 130613Z 07004KT 04/M06 A3025 RMK A01 T00401059  RH  048%=      5-min Rain = 0
KLE1 130614Z 07004KT 04/M06 A3025 RMK A01 T00411059  RH  048%=      5-min Rain = 0
KLE1 130615Z 08004KT 04/M06 A3025 RMK A01 T00421058  RH  048%=      5-min Rain = 0
KLE1 130616Z 08004KT 04/M06 A3025 RMK A01 T00431057  RH  048%=      5-min Rain = 0
KLE1 130617Z 08004KT 05/M06 A3025 RMK A01 T00451056  RH  048%=      5-min Rain = 0
KLE1 130618Z 08004KT 05/M06 A3025 RMK A01 T00461057  RH  047%=      5-min Rain = 0
KLE1 130619Z 09004KT 05/M06 A3025 RMK A01 T00461057  RH  047%=      5-min Rain = 0
KLE1 130620Z 09004KT 05/M06 A3025 RMK A01 T00461057  RH  047%=      5-min Rain = 0
KLE1 130621Z 08004KT 05/M06 A3025 RMK A01 T00471057  RH  047%=      5-min Rain = 0
KLE1 130622Z 07004KT 05/M06 A3025 RMK A01 T00471057  RH  047%=      5-min Rain = 0
KLE1 130623Z 07004KT 05/M06 A3025 RMK A01 T00481057  RH  047%=      5-min Rain = 0
KLE1 130624Z 07004KT 05/M06 A3025 RMK A01 T00471058  RH  046%=      5-min Rain = 0
KLE1 130625Z 06004KT 05/M06 A3025 RMK A01 T00471058  RH  046%=      5-min Rain = 0
KLE1 130626Z 07004KT 05/M06 A3025 RMK A01 T00471058  RH  047%=      5-min Rain = 0
KLE1 130627Z 07004KT 05/M06 A3025 RMK A01 T00461059  RH  047%=      5-min Rain = 0
KLE1 130628Z 06003KT 05/M06 A3025 RMK A01 T00461059  RH  047%=      5-min Rain = 0
KLE1 130629Z 07004KT 05/M06 A3025 RMK A01 T00451059  RH  047%=      5-min Rain = 0
KLE1 130630Z 07004KT 04/M06 A3025 RMK A01 T00441059  RH  047%=      5-min Rain = 0
KLE1 130631Z 08004KT 04/M06 A3025 RMK A01 T00431058  RH  048%=      5-min Rain = 0
KLE1 130632Z 09003KT 04/M06 A3025 RMK A01 T00441058  RH  048%=      5-min Rain = 0
KLE1 130633Z 09004KT 04/M06 A3025 RMK A01 T00441058  RH  048%=      5-min Rain = 0
KLE1 130634Z 09004KT 05/M06 A3025 RMK A01 T00461057  RH  047%=      5-min Rain = 0
KLE1 130635Z 09004KT 05/M06 A3025 RMK A01 T00481056  RH  047%=      5-min Rain = 0
KLE1 130636Z 09004KT 05/M06 A3025 RMK A01 T00481057  RH  047%=      5-min Rain = 0
KLE1 130637Z 08004KT 05/M06 A3025 RMK A01 T00481057  RH  046%=      5-min Rain = 0
KLE1 130638Z 08004KT 05/M06 A3025 RMK A01 T00481057  RH  046%=      5-min Rain = 0
KLE1 130639Z 08004KT 05/M06 A3025 RMK A01 T00481057  RH  046%=      5-min Rain = 0
KLE1 130640Z 08004KT 05/M06 A3025 RMK A01 T00481057  RH  046%=      5-min Rain = 0
KLE1 130641Z 08004KT 05/M06 A3025 RMK A01 T00481058  RH  046%=      5-min Rain = 0
KLE1 130642Z 08005KT 05/M06 A3025 RMK A01 T00471059  RH  046%=      5-min Rain = 0
KLE1 130643Z 07005KT 05/M06 A3025 RMK A01 T00461060  RH  046%=      5-min Rain = 0
KLE1 130644Z 08005KT 04/M06 A3025 RMK A01 T00441060  RH  047%=      5-min Rain = 0
KLE1 130645Z 08005KT 04/M06 A3025 RMK A01 T00441059  RH  047%=      5-min Rain = 0
KLE1 130646Z 09005KT 04/M06 A3025 RMK A01 T00431059  RH  048%=      5-min Rain = 0
KLE1 130647Z 09005KT 04/M06 A3025 RMK A01 T00421059  RH  048%=      5-min Rain = 0
KLE1 130648Z 09005KT 04/M06 A3025 RMK A01 T00411059  RH  048%=      5-min Rain = 0
KLE1 130649Z 09005KT 04/M06 A3025 RMK A01 T00411059  RH  048%=      5-min Rain = 0
KLE1 130650Z 09005KT 04/M06 A3025 RMK A01 T00411059  RH  048%=      5-min Rain = 0
KLE1 130651Z 09005KT 04/M06 A3025 RMK A01 T00411058  RH  048%=      5-min Rain = 0
KLE1 130652Z 09005KT 04/M06 A3025 RMK A01 T00411058  RH  048%=      5-min Rain = 0
KLE1 130653Z 08005KT 04/M06 A3025 RMK A01 T00411058  RH  048%=      5-min Rain = 0
KLE1 130654Z 08005KT 04/M06 A3025 RMK A01 T00411058  RH  048%=      5-min Rain = 0
KLE1 130655Z 08005KT 04/M06 A3025 RMK A01 T00411058  RH  048%=      5-min Rain = 0
KLE1 130656Z 07005KT 04/M06 A3025 RMK A01 T00411058  RH  049%=      5-min Rain = 0
KLE1 130657Z 07005KT 04/M06 A3025 RMK A01 T00411058  RH  049%=      5-min Rain = 0
KLE1 130658Z 07005KT 04/M06 A3025 RMK A01 T00411057  RH  049%=      5-min Rain = 0
KLE1 130659Z 06005KT 04/M06 A3025 RMK A01 T00411057  RH  049%=      5-min Rain = 0
KLE1 130700Z 06005KT 04/M06 A3026 RMK A01 T00401057  RH  049%=      5-min Rain = 0
KLE1 130701Z 06006KT 04/M06 A3026 RMK A01 T00391057  RH  050%=      5-min Rain = 0
KLE1 130702Z 07006KT 04/M06 A3026 RMK A01 T00391056  RH  050%=      5-min Rain = 0
KLE1 130703Z 06006KT 04/M06 A3025 RMK A01 T00391056  RH  050%=      5-min Rain = 0
KLE1 130704Z 06006KT 04/M06 A3025 RMK A01 T00391056  RH  050%=      5-min Rain = 0
KLE1 130705Z 06006KT 04/M06 A3025 RMK A01 T00401056  RH  050%=      5-min Rain = 0
KLE1 130706Z 06006KT 04/M06 A3025 RMK A01 T00401055  RH  050%=      5-min Rain = 0
KLE1 130707Z 06006KT 04/M06 A3025 RMK A01 T00401055  RH  050%=      5-min Rain = 0
KLE1 130708Z 06006KT 04/M06 A3025 RMK A01 T00401055  RH  050%=      5-min Rain = 0
KLE1 130709Z 06006KT 04/M06 A3025 RMK A01 T00401055  RH  050%=      5-min Rain = 0
KLE1 130710Z 07006KT 04/M06 A3025 RMK A01 T00401055  RH  050%=      5-min Rain = 0
KLE1 130711Z 07006KT 04/M06 A3025 RMK A01 T00401055  RH  050%=      5-min Rain = 0
KLE1 130712Z 07006KT 04/M06 A3025 RMK A01 T00401055  RH  050%=      5-min Rain = 0
KLE1 130713Z 07006KT 04/M06 A3025 RMK A01 T00401056  RH  050%=      5-min Rain = 0
KLE1 130714Z 07006KT 04/M06 A3025 RMK A01 T00401056  RH  050%=      5-min Rain = 0
KLE1 130715Z 07006KT 04/M06 A3025 RMK A01 T00401056  RH  050%=      5-min Rain = 0
KLE1 130716Z 07006KT 04/M06 A3025 RMK A01 T00401056  RH  050%=      5-min Rain = 0
KLE1 130717Z 06006KT 04/M06 A3025 RMK A01 T00401056  RH  050%=      5-min Rain = 0
KLE1 130718Z 06006KT 04/M06 A3025 RMK A01 T00401056  RH  050%=      5-min Rain = 0
KLE1 130719Z 06006KT 04/M06 A3025 RMK A01 T00401056  RH  049%=      5-min Rain = 0
KLE1 130720Z 07006KT 04/M06 A3025 RMK A01 T00401056  RH  049%=      5-min Rain = 0
KLE1 130721Z 06006KT 04/M06 A3025 RMK A01 T00411056  RH  049%=      5-min Rain = 0
KLE1 130722Z 06006KT 04/M06 A3025 RMK A01 T00411056  RH  049%=      5-min Rain = 0
KLE1 130723Z 06006KT 04/M06 A3026 RMK A01 T00411055  RH  049%=      5-min Rain = 0
KLE1 130724Z 06007KT 04/M06 A3026 RMK A01 T00411055  RH  049%=      5-min Rain = 0
KLE1 130725Z 06006KT 04/M06 A3026 RMK A01 T00411055  RH  049%=      5-min Rain = 0
KLE1 130726Z 06007KT 04/M06 A3026 RMK A01 T00421055  RH  049%=      5-min Rain = 0
KLE1 130727Z 05006KT 04/M06 A3026 RMK A01 T00411056  RH  049%=      5-min Rain = 0
KLE1 130728Z 05006KT 04/M06 A3026 RMK A01 T00411056  RH  049%=      5-min Rain = 0
KLE1 130729Z 06006KT 04/M06 A3026 RMK A01 T00401056  RH  049%=      5-min Rain = 0
KLE1 130730Z 06006KT 04/M06 A3026 RMK A01 T00401056  RH  049%=      5-min Rain = 0
KLE1 130731Z 06006KT 04/M06 A3026 RMK A01 T00401056  RH  050%=      5-min Rain = 0
KLE1 130732Z 06006KT 04/M06 A3026 RMK A01 T00391056  RH  050%=      5-min Rain = 0
KLE1 130733Z 06006KT 04/M06 A3026 RMK A01 T00391056  RH  050%=      5-min Rain = 0
KLE1 130734Z 06006KT 04/M06 A3026 RMK A01 T00381057  RH  050%=      5-min Rain = 0
KLE1 130735Z 05006KT 04/M06 A3026 RMK A01 T00391056  RH  050%=      5-min Rain = 0
KLE1 130736Z 05006KT 04/M06 A3026 RMK A01 T00381056  RH  050%=      5-min Rain = 0
KLE1 130737Z 05005KT 04/M06 A3026 RMK A01 T00391056  RH  050%=      5-min Rain = 0
KLE1 130738Z 05005KT 04/M06 A3026 RMK A01 T00391056  RH  050%=      5-min Rain = 0
KLE1 130739Z 06005KT 04/M06 A3026 RMK A01 T00391056  RH  050%=      5-min Rain = 0
KLE1 130740Z 06005KT 04/M06 A3026 RMK A01 T00391056  RH  050%=      5-min Rain = 0
KLE1 130741Z 06005KT 04/M06 A3026 RMK A01 T00391056  RH  050%=      5-min Rain = 0
KLE1 130742Z 06005KT 04/M06 A3026 RMK A01 T00391056  RH  050%=      5-min Rain = 0
KLE1 130743Z 06005KT 04/M06 A3026 RMK A01 T00391056  RH  050%=      5-min Rain = 0
KLE1 130744Z 06005KT 04/M06 A3026 RMK A01 T00391056  RH  050%=      5-min Rain = 0
KLE1 130745Z 06005KT 04/M06 A3026 RMK A01 T00391056  RH  050%=      5-min Rain = 0
KLE1 130746Z 06005KT 04/M06 A3026 RMK A01 T00401056  RH  050%=      5-min Rain = 0
KLE1 130747Z 06005KT 04/M06 A3026 RMK A01 T00401056  RH  050%=      5-min Rain = 0
KLE1 130748Z 06005KT 04/M06 A3026 RMK A01 T00401056  RH  050%=      5-min Rain = 0
KLE1 130749Z 05006KT 04/M06 A3026 RMK A01 T00401056  RH  050%=      5-min Rain = 0
KLE1 130750Z 05006KT 04/M06 A3026 RMK A01 T00401056  RH  050%=      5-min Rain = 0
KLE1 130751Z 05006KT 04/M06 A3026 RMK A01 T00391056  RH  050%=      5-min Rain = 0
KLE1 130752Z 05006KT 04/M06 A3026 RMK A01 T00381057  RH  050%=      5-min Rain = 0
KLE1 130753Z 05006KT 04/M06 A3026 RMK A01 T00371057  RH  050%=      5-min Rain = 0
KLE1 130754Z 05006KT 04/M06 A3026 RMK A01 T00361057  RH  051%=      5-min Rain = 0
KLE1 130755Z 05006KT 04/M06 A3026 RMK A01 T00361056  RH  051%=      5-min Rain = 0
KLE1 130756Z 05006KT 04/M06 A3026 RMK A01 T00351056  RH  051%=      5-min Rain = 0
KLE1 130757Z 05006KT 04/M06 A3026 RMK A01 T00351056  RH  051%=      5-min Rain = 0
KLE1 130758Z 05006KT 04/M06 A3026 RMK A01 T00351056  RH  052%=      5-min Rain = 0
KLE1 130759Z 05006KT 03/M06 A3026 RMK A01 T00341056  RH  052%=      5-min Rain = 0
KLE1 130800Z 05006KT 03/M06 A3026 RMK A01 T00341056  RH  052%=      5-min Rain = 0
KLE1 130801Z 05006KT 03/M06 A3026 RMK A01 T00341056  RH  052%=      5-min Rain = 0
KLE1 130802Z 05006KT 03/M06 A3026 RMK A01 T00331056  RH  052%=      5-min Rain = 0
KLE1 130803Z 05006KT 03/M06 A3026 RMK A01 T00331056  RH  052%=      5-min Rain = 0
KLE1 130804Z 05006KT 03/M06 A3026 RMK A01 T00321056  RH  052%=      5-min Rain = 0
KLE1 130805Z 04007KT 03/M06 A3026 RMK A01 T00331055  RH  052%=      5-min Rain = 0
KLE1 130806Z 04006KT 03/M06 A3026 RMK A01 T00321056  RH  052%=      5-min Rain = 0
KLE1 130807Z 04006KT 03/M06 A3026 RMK A01 T00321055  RH  053%=      5-min Rain = 0
KLE1 130808Z 04006KT 03/M06 A3026 RMK A01 T00321055  RH  053%=      5-min Rain = 0
KLE1 130809Z 04006KT 03/M06 A3026 RMK A01 T00321056  RH  053%=      5-min Rain = 0
KLE1 130810Z 04006KT 03/M06 A3026 RMK A01 T00321056  RH  053%=      5-min Rain = 0
KLE1 130811Z 04006KT 03/M06 A3026 RMK A01 T00321056  RH  053%=      5-min Rain = 0
KLE1 130812Z 04006KT 03/M06 A3026 RMK A01 T00321056  RH  053%=      5-min Rain = 0
KLE1 130813Z 04006KT 03/M06 A3026 RMK A01 T00311056  RH  053%=      5-min Rain = 0
KLE1 130814Z 04006KT 03/M06 A3026 RMK A01 T00311056  RH  053%=      5-min Rain = 0
KLE1 130815Z 04006KT 03/M06 A3026 RMK A01 T00311056  RH  053%=      5-min Rain = 0
KLE1 130816Z 04006KT 03/M06 A3026 RMK A01 T00311056  RH  053%=      5-min Rain = 0
KLE1 130817Z 04007KT 03/M06 A3026 RMK A01 T00301057  RH  053%=      5-min Rain = 0
KLE1 130818Z 04006KT 03/M06 A3026 RMK A01 T00291057  RH  053%=      5-min Rain = 0
KLE1 130819Z 04006KT 03/M06 A3026 RMK A01 T00291056  RH  054%=      5-min Rain = 0
KLE1 130820Z 04006KT 03/M06 A3026 RMK A01 T00281056  RH  054%=      5-min Rain = 0
KLE1 130821Z 04006KT 03/M06 A3026 RMK A01 T00281056  RH  054%=      5-min Rain = 0
KLE1 130822Z 04006KT 03/M06 A3026 RMK A01 T00281056  RH  054%=      5-min Rain = 0
KLE1 130823Z 04006KT 03/M06 A3026 RMK A01 T00281057  RH  054%=      5-min Rain = 0
KLE1 130824Z 04006KT 03/M06 A3026 RMK A01 T00281056  RH  054%=      5-min Rain = 0
KLE1 130825Z 04006KT 03/M06 A3026 RMK A01 T00281057  RH  054%=      5-min Rain = 0
KLE1 130826Z 04006KT 03/M06 A3026 RMK A01 T00281057  RH  054%=      5-min Rain = 0
KLE1 130827Z 04006KT 03/M06 A3026 RMK A01 T00281057  RH  054%=      5-min Rain = 0
KLE1 130828Z 04005KT 03/M06 A3026 RMK A01 T00281057  RH  054%=      5-min Rain = 0
KLE1 130829Z 04005KT 03/M06 A3026 RMK A01 T00281057  RH  054%=      5-min Rain = 0
KLE1 130830Z 05005KT 03/M06 A3026 RMK A01 T00281057  RH  054%=      5-min Rain = 0
KLE1 130831Z 05004KT 03/M06 A3026 RMK A01 T00291056  RH  054%=      5-min Rain = 0
KLE1 130832Z 05004KT 03/M06 A3026 RMK A01 T00291056  RH  053%=      5-min Rain = 0
KLE1 130833Z 06004KT 03/M06 A3026 RMK A01 T00311055  RH  053%=      5-min Rain = 0
KLE1 130834Z 06004KT 03/M06 A3026 RMK A01 T00321055  RH  053%=      5-min Rain = 0
KLE1 130835Z 06004KT 03/M05 A3026 RMK A01 T00341054  RH  052%=      5-min Rain = 0
KLE1 130836Z 06004KT 04/M05 A3026 RMK A01 T00351054  RH  052%=      5-min Rain = 0
KLE1 130837Z 06004KT 04/M05 A3026 RMK A01 T00361054  RH  052%=      5-min Rain = 0
KLE1 130838Z 06003KT 04/M05 A3026 RMK A01 T00371053  RH  051%=      5-min Rain = 0
KLE1 130839Z 07003KT 04/M05 A3026 RMK A01 T00381054  RH  051%=      5-min Rain = 0
KLE1 130840Z 07003KT 04/M05 A3026 RMK A01 T00391054  RH  051%=      5-min Rain = 0
KLE1 130841Z 08003KT 04/M05 A3026 RMK A01 T00391054  RH  051%=      5-min Rain = 0
KLE1 130842Z 08003KT 04/M05 A3026 RMK A01 T00391054  RH  051%=      5-min Rain = 0
KLE1 130843Z 08003KT 04/M05 A3026 RMK A01 T00401054  RH  050%=      5-min Rain = 0
KLE1 130844Z 09003KT 04/M05 A3026 RMK A01 T00401054  RH  050%=      5-min Rain = 0
KLE1 130845Z 09003KT 04/M05 A3026 RMK A01 T00411053  RH  050%=      5-min Rain = 0
KLE1 130846Z 10003KT 04/M05 A3026 RMK A01 T00411053  RH  050%=      5-min Rain = 0
KLE1 130847Z 18003KT 04/M06 A3026 RMK A01 T00411056  RH  049%=      5-min Rain = 0
KLE1 130848Z 14002KT 04/M06 A3026 RMK A01 T00371058  RH  050%=      5-min Rain = 0
KLE1 130849Z 18003KT 04/M06 A3026 RMK A01 T00361057  RH  051%=      5-min Rain = 0
KLE1 130850Z 19005KT 03/M06 A3026 RMK A01 T00301063  RH  050%=      5-min Rain = 0
KLE1 130851Z 19005KT 02/M07 A3026 RMK A01 T00231067  RH  051%=      5-min Rain = 0
KLE1 130852Z 19005KT 02/M07 A3026 RMK A01 T00191068  RH  053%=      5-min Rain = 0
KLE1 130853Z 19004KT 02/M07 A3026 RMK A01 T00151068  RH  054%=      5-min Rain = 0
KLE1 130854Z 19004KT 01/M07 A3026 RMK A01 T00131067  RH  055%=      5-min Rain = 0
KLE1 130855Z 19004KT 01/M07 A3026 RMK A01 T00121067  RH  056%=      5-min Rain = 0
KLE1 130856Z 19004KT 01/M07 A3026 RMK A01 T00121066  RH  056%=      5-min Rain = 0
KLE1 130857Z 19004KT 01/M07 A3026 RMK A01 T00131065  RH  056%=      5-min Rain = 0
KLE1 130858Z 20004KT 01/M06 A3026 RMK A01 T00141064  RH  056%=      5-min Rain = 0
KLE1 130859Z 20004KT 02/M06 A3026 RMK A01 T00151064  RH  056%=      5-min Rain = 0
KLE1 130900Z 19003KT 02/M06 A3026 RMK A01 T00161063  RH  055%=      5-min Rain = 0
KLE1 130901Z 19003KT 02/M06 A3027 RMK A01 T00171062  RH  056%=      5-min Rain = 0
KLE1 130902Z 18002KT 02/M06 A3027 RMK A01 T00191060  RH  056%=      5-min Rain = 0
KLE1 130903Z 18002KT 02/M06 A3027 RMK A01 T00211059  RH  055%=      5-min Rain = 0
KLE1 130904Z 17002KT 02/M06 A3027 RMK A01 T00221059  RH  055%=      5-min Rain = 0
KLE1 130905Z 16001KT 02/M06 A3027 RMK A01 T00231058  RH  055%=      5-min Rain = 0
KLE1 130906Z 16001KT 02/M06 A3027 RMK A01 T00241058  RH  055%=      5-min Rain = 0
KLE1 130907Z 17001KT 03/M06 A3027 RMK A01 T00251057  RH  055%=      5-min Rain = 0
KLE1 130908Z 18002KT 03/M06 A3027 RMK A01 T00261057  RH  054%=      5-min Rain = 0
KLE1 130909Z 19002KT 03/M06 A3027 RMK A01 T00271057  RH  054%=      5-min Rain = 0
KLE1 130910Z 18002KT 03/M06 A3026 RMK A01 T00281057  RH  054%=      5-min Rain = 0
KLE1 130911Z 18002KT 03/M06 A3026 RMK A01 T00291057  RH  053%=      5-min Rain = 0
KLE1 130912Z 18002KT 03/M06 A3026 RMK A01 T00291058  RH  053%=      5-min Rain = 0
KLE1 130913Z 18002KT 03/M06 A3026 RMK A01 T00291058  RH  053%=      5-min Rain = 0
KLE1 130914Z 17001KT 03/M06 A3027 RMK A01 T00281058  RH  053%=      5-min Rain = 0
KLE1 130915Z 16001KT 03/M06 A3027 RMK A01 T00281059  RH  053%=      5-min Rain = 0
KLE1 130916Z 15001KT 03/M06 A3027 RMK A01 T00271059  RH  053%=      5-min Rain = 0
KLE1 130917Z 14001KT 03/M06 A3027 RMK A01 T00271059  RH  053%=      5-min Rain = 0
KLE1 130918Z 12001KT 03/M06 A3027 RMK A01 T00261058  RH  054%=      5-min Rain = 0
KLE1 130919Z 11001KT 03/M06 A3027 RMK A01 T00271058  RH  054%=      5-min Rain = 0
KLE1 130920Z 10002KT 03/M06 A3027 RMK A01 T00271057  RH  054%=      5-min Rain = 0
KLE1 130921Z 09002KT 03/M06 A3027 RMK A01 T00261057  RH  054%=      5-min Rain = 0
KLE1 130922Z 09002KT 03/M06 A3027 RMK A01 T00261056  RH  055%=      5-min Rain = 0
KLE1 130923Z 09002KT 03/M06 A3027 RMK A01 T00261055  RH  055%=      5-min Rain = 0
KLE1 130924Z 09002KT 03/M05 A3027 RMK A01 T00281054  RH  055%=      5-min Rain = 0
KLE1 130925Z 08002KT 03/M05 A3027 RMK A01 T00301053  RH  054%=      5-min Rain = 0
KLE1 130926Z 08002KT 03/M05 A3027 RMK A01 T00311053  RH  054%=      5-min Rain = 0
KLE1 130927Z 08003KT 03/M05 A3027 RMK A01 T00331053  RH  053%=      5-min Rain = 0
KLE1 130928Z 08003KT 04/M05 A3027 RMK A01 T00351053  RH  053%=      5-min Rain = 0
KLE1 130929Z 08003KT 04/M05 A3027 RMK A01 T00361053  RH  052%=      5-min Rain = 0
KLE1 130930Z 08003KT 04/M05 A3027 RMK A01 T00361053  RH  052%=      5-min Rain = 0
KLE1 130931Z 07004KT 04/M05 A3027 RMK A01 T00361054  RH  052%=      5-min Rain = 0
KLE1 130932Z 07004KT 03/M06 A3027 RMK A01 T00341055  RH  052%=      5-min Rain = 0
KLE1 130933Z 07004KT 03/M06 A3027 RMK A01 T00331056  RH  052%=      5-min Rain = 0
KLE1 130934Z 07004KT 03/M06 A3027 RMK A01 T00311057  RH  052%=      5-min Rain = 0
KLE1 130935Z 07004KT 03/M06 A3027 RMK A01 T00291060  RH  052%=      5-min Rain = 0
KLE1 130936Z 06004KT 03/M06 A3027 RMK A01 T00261061  RH  053%=      5-min Rain = 0
KLE1 130937Z 06004KT 02/M06 A3027 RMK A01 T00241061  RH  054%=      5-min Rain = 0
KLE1 130938Z 06005KT 02/M06 A3027 RMK A01 T00231061  RH  054%=      5-min Rain = 0
KLE1 130939Z 06005KT 02/M06 A3027 RMK A01 T00221060  RH  055%=      5-min Rain = 0
KLE1 130940Z 06005KT 02/M06 A3027 RMK A01 T00211060  RH  055%=      5-min Rain = 0
KLE1 130941Z 06005KT 02/M06 A3027 RMK A01 T00201060  RH  055%=      5-min Rain = 0
KLE1 130942Z 06005KT 02/M06 A3027 RMK A01 T00201061  RH  055%=      5-min Rain = 0
KLE1 130943Z 06005KT 02/M06 A3027 RMK A01 T00191061  RH  056%=      5-min Rain = 0
KLE1 130944Z 06005KT 02/M06 A3027 RMK A01 T00181061  RH  056%=      5-min Rain = 0
KLE1 130945Z 06006KT 02/M06 A3027 RMK A01 T00181060  RH  056%=      5-min Rain = 0
KLE1 130946Z 06006KT 02/M06 A3027 RMK A01 T00181059  RH  056%=      5-min Rain = 0
KLE1 130947Z 05006KT 02/M06 A3027 RMK A01 T00191059  RH  056%=      5-min Rain = 0
KLE1 130948Z 05007KT 02/M06 A3027 RMK A01 T00201058  RH  056%=      5-min Rain = 0
KLE1 130949Z 05007KT 02/M06 A3027 RMK A01 T00201058  RH  056%=      5-min Rain = 0
KLE1 130950Z 05007KT 02/M06 A3027 RMK A01 T00201058  RH  056%=      5-min Rain = 0
KLE1 130951Z 05007KT 02/M06 A3027 RMK A01 T00191059  RH  056%=      5-min Rain = 0
KLE1 130952Z 05007KT 02/M06 A3027 RMK A01 T00181059  RH  057%=      5-min Rain = 0
KLE1 130953Z 05007KT 02/M06 A3027 RMK A01 T00181058  RH  057%=      5-min Rain = 0
KLE1 130954Z 06006KT 02/M06 A3027 RMK A01 T00181058  RH  057%=      5-min Rain = 0
KLE1 130955Z 06006KT 02/M06 A3027 RMK A01 T00181058  RH  057%=      5-min Rain = 0
KLE1 130956Z 06006KT 02/M06 A3026 RMK A01 T00181058  RH  057%=      5-min Rain = 0
KLE1 130957Z 06006KT 02/M06 A3026 RMK A01 T00181059  RH  057%=      5-min Rain = 0
KLE1 130958Z 06006KT 02/M06 A3026 RMK A01 T00181059  RH  057%=      5-min Rain = 0
KLE1 130959Z 06006KT 02/M06 A3026 RMK A01 T00181059  RH  056%=      5-min Rain = 0
KLE1 131000Z 06006KT 02/M06 A3026 RMK A01 T00181059  RH  056%=      5-min Rain = 0
KLE1 131001Z 06006KT 02/M06 A3026 RMK A01 T00181059  RH  056%=      5-min Rain = 0
KLE1 131002Z 06007KT 02/M06 A3026 RMK A01 T00181059  RH  057%=      5-min Rain = 0
KLE1 131003Z 06007KT 02/M06 A3026 RMK A01 T00171060  RH  057%=      5-min Rain = 0
KLE1 131004Z 06006KT 02/M06 A3026 RMK A01 T00171060  RH  057%=      5-min Rain = 0
KLE1 131005Z 06006KT 02/M06 A3026 RMK A01 T00161060  RH  057%=      5-min Rain = 0
KLE1 131006Z 06006KT 02/M06 A3026 RMK A01 T00151060  RH  057%=      5-min Rain = 0
KLE1 131007Z 06006KT 02/M06 A3026 RMK A01 T00161060  RH  057%=      5-min Rain = 0
KLE1 131008Z 05006KT 02/M06 A3026 RMK A01 T00161060  RH  057%=      5-min Rain = 0
KLE1 131009Z 05007KT 02/M06 A3026 RMK A01 T00161059  RH  057%=      5-min Rain = 0
KLE1 131010Z 05007KT 02/M06 A3027 RMK A01 T00151059  RH  058%=      5-min Rain = 0
KLE1 131011Z 04007KT 02/M06 A3027 RMK A01 T00161059  RH  058%=      5-min Rain = 0
KLE1 131012Z 04007KT 02/M06 A3027 RMK A01 T00161059  RH  058%=      5-min Rain = 0
KLE1 131013Z 04007KT 02/M06 A3027 RMK A01 T00161058  RH  058%=      5-min Rain = 0
KLE1 131014Z 04007KT 02/M06 A3027 RMK A01 T00161058  RH  058%=      5-min Rain = 0
KLE1 131015Z 04007KT 02/M06 A3027 RMK A01 T00161058  RH  058%=      5-min Rain = 0
KLE1 131016Z 04007KT 02/M06 A3027 RMK A01 T00161058  RH  058%=      5-min Rain = 0
KLE1 131017Z 04007KT 02/M06 A3027 RMK A01 T00161058  RH  058%=      5-min Rain = 0
KLE1 131018Z 04007KT 02/M06 A3027 RMK A01 T00161058  RH  058%=      5-min Rain = 0
KLE1 131019Z 04008KT 02/M06 A3027 RMK A01 T00151058  RH  058%=      5-min Rain = 0
KLE1 131020Z 04008KT 02/M06 A3027 RMK A01 T00151058  RH  058%=      5-min Rain = 0
KLE1 131021Z 04008KT 02/M06 A3027 RMK A01 T00151058  RH  058%=      5-min Rain = 0
KLE1 131022Z 04008KT 02/M06 A3027 RMK A01 T00151058  RH  058%=      5-min Rain = 0
KLE1 131023Z 04008KT 02/M06 A3027 RMK A01 T00161058  RH  058%=      5-min Rain = 0
KLE1 131024Z 04007KT 02/M06 A3027 RMK A01 T00151058  RH  058%=      5-min Rain = 0
KLE1 131025Z 04007KT 02/M06 A3027 RMK A01 T00161058  RH  058%=      5-min Rain = 0
KLE1 131026Z 04007KT 02/M06 A3027 RMK A01 T00151058  RH  058%=      5-min Rain = 0
KLE1 131027Z 04006KT 02/M06 A3027 RMK A01 T00151058  RH  058%=      5-min Rain = 0
KLE1 131028Z 05006KT 02/M06 A3027 RMK A01 T00151059  RH  058%=      5-min Rain = 0
KLE1 131029Z 05006KT 02/M06 A3027 RMK A01 T00151059  RH  058%=      5-min Rain = 0
KLE1 131030Z 05007KT 01/M06 A3027 RMK A01 T00141060  RH  058%=      5-min Rain = 0
KLE1 131031Z 05007KT 01/M06 A3027 RMK A01 T00131060  RH  058%=      5-min Rain = 0
KLE1 131032Z 05007KT 01/M06 A3027 RMK A01 T00121060  RH  059%=      5-min Rain = 0
KLE1 131033Z 05007KT 01/M06 A3027 RMK A01 T00111060  RH  059%=      5-min Rain = 0
KLE1 131034Z 05006KT 01/M06 A3027 RMK A01 T00111060  RH  059%=      5-min Rain = 0
KLE1 131035Z 05006KT 01/M06 A3027 RMK A01 T00111060  RH  059%=      5-min Rain = 0
KLE1 131036Z 05006KT 01/M06 A3027 RMK A01 T00111060  RH  059%=      5-min Rain = 0
KLE1 131037Z 05007KT 01/M06 A3027 RMK A01 T00111060  RH  059%=      5-min Rain = 0
KLE1 131038Z 05006KT 01/M06 A3027 RMK A01 T00111059  RH  060%=      5-min Rain = 0
KLE1 131039Z 05006KT 01/M06 A3028 RMK A01 T00101060  RH  060%=      5-min Rain = 0
KLE1 131040Z 05007KT 01/M06 A3028 RMK A01 T00111060  RH  059%=      5-min Rain = 0
KLE1 131041Z 05007KT 01/M06 A3028 RMK A01 T00111059  RH  059%=      5-min Rain = 0
KLE1 131042Z 05007KT 01/M06 A3028 RMK A01 T00111059  RH  059%=      5-min Rain = 0
KLE1 131043Z 05007KT 01/M06 A3028 RMK A01 T00111059  RH  059%=      5-min Rain = 0
KLE1 131044Z 05006KT 01/M06 A3028 RMK A01 T00111059  RH  059%=      5-min Rain = 0
KLE1 131045Z 05006KT 01/M06 A3028 RMK A01 T00111059  RH  059%=      5-min Rain = 0
KLE1 131046Z 05006KT 01/M06 A3028 RMK A01 T00121059  RH  059%=      5-min Rain = 0
KLE1 131047Z 05006KT 01/M06 A3028 RMK A01 T00121058  RH  059%=      5-min Rain = 0
KLE1 131048Z 05006KT 01/M06 A3028 RMK A01 T00131058  RH  059%=      5-min Rain = 0
KLE1 131049Z 05007KT 01/M06 A3028 RMK A01 T00121058  RH  059%=      5-min Rain = 0
KLE1 131050Z 05006KT 01/M06 A3028 RMK A01 T00131058  RH  059%=      5-min Rain = 0
KLE1 131051Z 06006KT 01/M06 A3028 RMK A01 T00131058  RH  059%=      5-min Rain = 0
KLE1 131052Z 06006KT 01/M06 A3028 RMK A01 T00131058  RH  059%=      5-min Rain = 0
KLE1 131053Z 06007KT 01/M06 A3028 RMK A01 T00131058  RH  059%=      5-min Rain = 0
KLE1 131054Z 06006KT 01/M06 A3028 RMK A01 T00131058  RH  059%=      5-min Rain = 0
KLE1 131055Z 06007KT 01/M06 A3028 RMK A01 T00131058  RH  059%=      5-min Rain = 0
KLE1 131056Z 06007KT 01/M06 A3028 RMK A01 T00131058  RH  059%=      5-min Rain = 0
KLE1 131057Z 06006KT 01/M06 A3028 RMK A01 T00131058  RH  059%=      5-min Rain = 0
KLE1 131058Z 05006KT 01/M06 A3028 RMK A01 T00131058  RH  059%=      5-min Rain = 0
KLE1 131059Z 05006KT 01/M06 A3029 RMK A01 T00131058  RH  059%=      5-min Rain = 0
KLE1 131100Z 06007KT 01/M06 A3029 RMK A01 T00141057  RH  059%=      5-min Rain = 0
KLE1 131101Z 05007KT 01/M06 A3029 RMK A01 T00141058  RH  059%=      5-min Rain = 0
KLE1 131102Z 05007KT 01/M06 A3029 RMK A01 T00141058  RH  059%=      5-min Rain = 0
KLE1 131103Z 05007KT 01/M06 A3029 RMK A01 T00141058  RH  059%=      5-min Rain = 0
KLE1 131104Z 06007KT 01/M06 A3029 RMK A01 T00141058  RH  059%=      5-min Rain = 0
KLE1 131105Z 06007KT 01/M06 A3029 RMK A01 T00141058  RH  059%=      5-min Rain = 0
KLE1 131106Z 06007KT 01/M06 A3029 RMK A01 T00141059  RH  059%=      5-min Rain = 0
KLE1 131107Z 06006KT 01/M06 A3029 RMK A01 T00141058  RH  059%=      5-min Rain = 0
KLE1 131108Z 06006KT 02/M06 A3029 RMK A01 T00151058  RH  058%=      5-min Rain = 0
KLE1 131109Z 06007KT 02/M06 A3029 RMK A01 T00151058  RH  058%=      5-min Rain = 0
KLE1 131110Z 06006KT 02/M06 A3029 RMK A01 T00151058  RH  058%=      5-min Rain = 0
KLE1 131111Z 06007KT 02/M06 A3029 RMK A01 T00151059  RH  058%=      5-min Rain = 0
KLE1 131112Z 06007KT 02/M06 A3029 RMK A01 T00151059  RH  058%=      5-min Rain = 0
KLE1 131113Z 06007KT 02/M06 A3029 RMK A01 T00151059  RH  058%=      5-min Rain = 0
KLE1 131114Z 06008KT 01/M06 A3029 RMK A01 T00141060  RH  058%=      5-min Rain = 0
KLE1 131115Z 06008KT 01/M06 A3029 RMK A01 T00141059  RH  058%=      5-min Rain = 0
KLE1 131116Z 07007KT 01/M06 A3029 RMK A01 T00141059  RH  058%=      5-min Rain = 0
KLE1 131117Z 06007KT 01/M06 A3029 RMK A01 T00141060  RH  058%=      5-min Rain = 0
KLE1 131118Z 06008KT 01/M06 A3029 RMK A01 T00141060  RH  058%=      5-min Rain = 0
KLE1 131119Z 06008KT 02/M06 A3029 RMK A01 T00151060  RH  058%=      5-min Rain = 0
KLE1 131120Z 06009KT 02/M06 A3029 RMK A01 T00151059  RH  058%=      5-min Rain = 0
KLE1 131121Z 06009KT 02/M06 A3029 RMK A01 T00151059  RH  058%=      5-min Rain = 0
KLE1 131122Z 06009KT 02/M06 A3029 RMK A01 T00161059  RH  058%=      5-min Rain = 0
KLE1 131123Z 06009KT 02/M06 A3029 RMK A01 T00161059  RH  057%=      5-min Rain = 0
KLE1 131124Z 07008KT 02/M06 A3029 RMK A01 T00171059  RH  057%=      5-min Rain = 0
KLE1 131125Z 06008KT 02/M06 A3029 RMK A01 T00171060  RH  057%=      5-min Rain = 0
KLE1 131126Z 06008KT 02/M06 A3029 RMK A01 T00171060  RH  057%=      5-min Rain = 0
KLE1 131127Z 07008KT 02/M06 A3029 RMK A01 T00171060  RH  057%=      5-min Rain = 0
KLE1 131128Z 06008KT 02/M06 A3029 RMK A01 T00181060  RH  057%=      5-min Rain = 0
KLE1 131129Z 06008KT 02/M06 A3029 RMK A01 T00181060  RH  056%=      5-min Rain = 0
KLE1 131130Z 06007KT 02/M06 A3029 RMK A01 T00181060  RH  056%=      5-min Rain = 0
KLE1 131131Z 06007KT 02/M06 A3029 RMK A01 T00171061  RH  056%=      5-min Rain = 0
KLE1 131132Z 06008KT 02/M06 A3029 RMK A01 T00171060  RH  057%=      5-min Rain = 0
KLE1 131133Z 06007KT 02/M06 A3029 RMK A01 T00161060  RH  057%=      5-min Rain = 0
KLE1 131134Z 06007KT 02/M06 A303 RMK A01 T00161060  RH  057%=      5-min Rain = 0
KLE1 131135Z 06007KT 02/M06 A303 RMK A01 T00161060  RH  057%=      5-min Rain = 0
KLE1 131136Z 06007KT 02/M06 A303 RMK A01 T00161061  RH  057%=      5-min Rain = 0
KLE1 131137Z 06007KT 02/M06 A303 RMK A01 T00171060  RH  057%=      5-min Rain = 0
KLE1 131138Z 06007KT 02/M06 A303 RMK A01 T00161061  RH  057%=      5-min Rain = 0
KLE1 131139Z 06006KT 02/M06 A303 RMK A01 T00161061  RH  057%=      5-min Rain = 0
KLE1 131140Z 05007KT 02/M06 A303 RMK A01 T00171060  RH  056%=      5-min Rain = 0
KLE1 131141Z 05007KT 02/M06 A303 RMK A01 T00161061  RH  056%=      5-min Rain = 0
KLE1 131142Z 05007KT 02/M06 A303 RMK A01 T00151061  RH  057%=      5-min Rain = 0
KLE1 131143Z 05007KT 02/M06 A303 RMK A01 T00151062  RH  057%=      5-min Rain = 0
KLE1 131144Z 05007KT 01/M06 A303 RMK A01 T00141062  RH  057%=      5-min Rain = 0
KLE1 131145Z 05007KT 01/M06 A303 RMK A01 T00141062  RH  057%=      5-min Rain = 0
KLE1 131146Z 05007KT 01/M06 A303 RMK A01 T00141062  RH  057%=      5-min Rain = 0
KLE1 131147Z 05007KT 01/M06 A303 RMK A01 T00141061  RH  057%=      5-min Rain = 0
KLE1 131148Z 05007KT 01/M06 A303 RMK A01 T00141061  RH  057%=      5-min Rain = 0
KLE1 131149Z 05006KT 02/M06 A303 RMK A01 T00151061  RH  057%=      5-min Rain = 0
KLE1 131150Z 06006KT 02/M06 A303 RMK A01 T00151062  RH  057%=      5-min Rain = 0
KLE1 131151Z 06006KT 02/M06 A303 RMK A01 T00151062  RH  057%=      5-min Rain = 0
KLE1 131152Z 06006KT 02/M06 A303 RMK A01 T00151062  RH  057%=      5-min Rain = 0
KLE1 131153Z 06006KT 02/M06 A303 RMK A01 T00151062  RH  057%=      5-min Rain = 0
KLE1 131154Z 06006KT 02/M06 A303 RMK A01 T00151062  RH  057%=      5-min Rain = 0
KLE1 131155Z 06006KT 01/M06 A303 RMK A01 T00141062  RH  057%=      5-min Rain = 0
KLE1 131156Z 05006KT 01/M06 A303 RMK A01 T00141062  RH  057%=      5-min Rain = 0
KLE1 131157Z 06006KT 01/M06 A303 RMK A01 T00131062  RH  057%=      5-min Rain = 0
KLE1 131158Z 06007KT 01/M06 A303 RMK A01 T00131063  RH  057%=      5-min Rain = 0
KLE1 131159Z 06006KT 01/M06 A303 RMK A01 T00131062  RH  057%=      5-min Rain = 0
KLE1 131200Z 06006KT 01/M06 A303 RMK A01 T00131062  RH  057%=      5-min Rain = 0
KLE1 131201Z 06006KT 01/M06 A303 RMK A01 T00131062  RH  057%=      5-min Rain = 0
KLE1 131202Z 06006KT 01/M06 A303 RMK A01 T00131062  RH  057%=      5-min Rain = 0
KLE1 131203Z 06006KT 01/M06 A303 RMK A01 T00131062  RH  057%=      5-min Rain = 0
KLE1 131204Z 06006KT 01/M06 A303 RMK A01 T00141062  RH  057%=      5-min Rain = 0
KLE1 131205Z 06006KT 01/M06 A303 RMK A01 T00141062  RH  057%=      5-min Rain = 0
KLE1 131206Z 06006KT 01/M06 A303 RMK A01 T00141062  RH  057%=      5-min Rain = 0
KLE1 131207Z 06006KT 01/M06 A303 RMK A01 T00141063  RH  057%=      5-min Rain = 0
KLE1 131208Z 06007KT 01/M06 A303 RMK A01 T00141063  RH  057%=      5-min Rain = 0
KLE1 131209Z 06007KT 01/M06 A303 RMK A01 T00141063  RH  057%=      5-min Rain = 0
KLE1 131210Z 06007KT 01/M06 A303 RMK A01 T00141063  RH  057%=      5-min Rain = 0
KLE1 131211Z 06007KT 01/M06 A3031 RMK A01 T00141063  RH  057%=      5-min Rain = 0
KLE1 131212Z 06007KT 01/M06 A3031 RMK A01 T00141063  RH  057%=      5-min Rain = 0
KLE1 131213Z 06007KT 01/M06 A3031 RMK A01 T00131063  RH  057%=      5-min Rain = 0
KLE1 131214Z 06007KT 01/M06 A3031 RMK A01 T00131063  RH  057%=      5-min Rain = 0
KLE1 131215Z 06007KT 01/M06 A3031 RMK A01 T00121063  RH  057%=      5-min Rain = 0
KLE1 131216Z 06007KT 01/M06 A3031 RMK A01 T00121063  RH  057%=      5-min Rain = 0
KLE1 131217Z 06007KT 01/M06 A3031 RMK A01 T00121063  RH  057%=      5-min Rain = 0
KLE1 131218Z 07007KT 01/M06 A3031 RMK A01 T00121063  RH  057%=      5-min Rain = 0
KLE1 131219Z 06007KT 01/M06 A3031 RMK A01 T00121063  RH  057%=      5-min Rain = 0
KLE1 131220Z 07007KT 01/M06 A3031 RMK A01 T00131063  RH  057%=      5-min Rain = 0
KLE1 131221Z 07007KT 01/M06 A3031 RMK A01 T00121064  RH  057%=      5-min Rain = 0
KLE1 131222Z 07007KT 01/M06 A3031 RMK A01 T00121064  RH  057%=      5-min Rain = 0
KLE1 131223Z 07006KT 01/M06 A3031 RMK A01 T00121064  RH  057%=      5-min Rain = 0
KLE1 131224Z 07007KT 01/M06 A3031 RMK A01 T00121064  RH  057%=      5-min Rain = 0
KLE1 131225Z 07007KT 01/M06 A3031 RMK A01 T00121064  RH  057%=      5-min Rain = 0
KLE1 131226Z 07007KT 01/M06 A3031 RMK A01 T00121064  RH  057%=      5-min Rain = 0
KLE1 131227Z 08006KT 01/M06 A3031 RMK A01 T00121064  RH  057%=      5-min Rain = 0
KLE1 131228Z 08006KT 01/M07 A3031 RMK A01 T00111065  RH  057%=      5-min Rain = 0
KLE1 131229Z 07006KT 01/M07 A3031 RMK A01 T00101066  RH  057%=      5-min Rain = 0
KLE1 131230Z 07006KT 01/M07 A3031 RMK A01 T00091066  RH  057%=      5-min Rain = 0
KLE1 131231Z 07006KT 01/M06 A3031 RMK A01 T00101064  RH  058%=      5-min Rain = 0
KLE1 131232Z 07006KT 01/M06 A3031 RMK A01 T00111063  RH  058%=      5-min Rain = 0
KLE1 131233Z 07006KT 01/M06 A3031 RMK A01 T00131062  RH  057%=      5-min Rain = 0
KLE1 131234Z 06006KT 01/M06 A3031 RMK A01 T00131063  RH  057%=      5-min Rain = 0
KLE1 131235Z 07006KT 01/M06 A3031 RMK A01 T00141062  RH  057%=      5-min Rain = 0
KLE1 131236Z 06006KT 02/M06 A3031 RMK A01 T00151062  RH  056%=      5-min Rain = 0
KLE1 131237Z 06006KT 02/M06 A3031 RMK A01 T00151063  RH  056%=      5-min Rain = 0
KLE1 131238Z 06006KT 02/M06 A3031 RMK A01 T00151064  RH  056%=      5-min Rain = 0
KLE1 131239Z 06006KT 01/M07 A3031 RMK A01 T00131065  RH  056%=      5-min Rain = 0
KLE1 131240Z 06005KT 01/M07 A3031 RMK A01 T00131065  RH  056%=      5-min Rain = 0
KLE1 131241Z 06006KT 01/M07 A3031 RMK A01 T00121065  RH  056%=      5-min Rain = 0
KLE1 131242Z 06005KT 01/M07 A3032 RMK A01 T00121065  RH  056%=      5-min Rain = 0
KLE1 131243Z 06005KT 01/M07 A3032 RMK A01 T00111065  RH  057%=      5-min Rain = 0
KLE1 131244Z 06005KT 01/M07 A3032 RMK A01 T00101065  RH  057%=      5-min Rain = 0
KLE1 131245Z 06005KT 01/M07 A3032 RMK A01 T00101066  RH  057%=      5-min Rain = 0
KLE1 131246Z 06004KT 01/M07 A3032 RMK A01 T00101066  RH  057%=      5-min Rain = 0
KLE1 131247Z 06004KT 01/M07 A3032 RMK A01 T00101065  RH  057%=      5-min Rain = 0
KLE1 131248Z 06004KT 01/M07 A3032 RMK A01 T00101065  RH  057%=      5-min Rain = 0
KLE1 131249Z 06003KT 01/M07 A3032 RMK A01 T00101065  RH  057%=      5-min Rain = 0
KLE1 131250Z 05003KT 01/M07 A3032 RMK A01 T00091066  RH  057%=      5-min Rain = 0
KLE1 131251Z 06002KT 01/M07 A3033 RMK A01 T00081067  RH  057%=      5-min Rain = 0
KLE1 131252Z 06002KT 01/M07 A3033 RMK A01 T00081067  RH  057%=      5-min Rain = 0
KLE1 131253Z 06002KT 01/M07 A3033 RMK A01 T00071067  RH  057%=      5-min Rain = 0
KLE1 131254Z 07002KT 01/M07 A3033 RMK A01 T00071067  RH  057%=      5-min Rain = 0
KLE1 131255Z 08001KT 01/M07 A3033 RMK A01 T00081066  RH  057%=      5-min Rain = 0
KLE1 131256Z 09002KT 01/M07 A3033 RMK A01 T00091066  RH  057%=      5-min Rain = 0
KLE1 131257Z 11001KT 01/M07 A3033 RMK A01 T00091066  RH  057%=      5-min Rain = 0
KLE1 131258Z 15001KT 01/M07 A3033 RMK A01 T00101066  RH  057%=      5-min Rain = 0
KLE1 131259Z 18001KT 01/M07 A3033 RMK A01 T00111066  RH  057%=      5-min Rain = 0
KLE1 131300Z 19002KT 01/M07 A3033 RMK A01 T00091068  RH  056%=      5-min Rain = 0
KLE1 131301Z 19002KT 00/M07 A3033 RMK A01 T00041071  RH  057%=      5-min Rain = 0
KLE1 131302Z 20002KT 00/07 A3034 RMK A01 T00000-71  RH  059%=      5-min Rain = 0
KLE1 131303Z 20002KT M00/M07 A3034 RMK A01 T10021069  RH  061%=      5-min Rain = 0
KLE1 131304Z 20002KT M00/M07 A3034 RMK A01 T10031067  RH  062%=      5-min Rain = 0
KLE1 131305Z 18002KT M00/M07 A3034 RMK A01 T10041067  RH  063%=      5-min Rain = 0
KLE1 131306Z 17001KT M00/M07 A3034 RMK A01 T10041066  RH  063%=      5-min Rain = 0
KLE1 131307Z 16001KT M00/M07 A3034 RMK A01 T10041066  RH  063%=      5-min Rain = 0
KLE1 131308Z 15001KT M00/M07 A3034 RMK A01 T10031065  RH  063%=      5-min Rain = 0
KLE1 131309Z 14001KT M00/M07 A3034 RMK A01 T10021065  RH  063%=      5-min Rain = 0
KLE1 131310Z 13001KT M00/M06 A3034 RMK A01 T10011064  RH  062%=      5-min Rain = 0
KLE1 131311Z 10002KT 00/06 A3034 RMK A01 T00000-64  RH  062%=      5-min Rain = 0
KLE1 131312Z 10001KT 00/M06 A3034 RMK A01 T00011064  RH  062%=      5-min Rain = 0
KLE1 131313Z 09001KT 00/M06 A3034 RMK A01 T00021064  RH  061%=      5-min Rain = 0
KLE1 131314Z 09001KT 00/M06 A3034 RMK A01 T00031064  RH  061%=      5-min Rain = 0
KLE1 131315Z 09001KT 00/M06 A3034 RMK A01 T00041064  RH  060%=      5-min Rain = 0
KLE1 131316Z 07001KT 01/M06 A3034 RMK A01 T00051064  RH  060%=      5-min Rain = 0
KLE1 131317Z 06000KT 01/M06 A3034 RMK A01 T00051064  RH  060%=      5-min Rain = 0
KLE1 131318Z 00000KT 00/M07 A3034 RMK A01 T00041065  RH  060%=      5-min Rain = 0
KLE1 131319Z 27000KT 00/M07 A3034 RMK A01 T00031066  RH  060%=      5-min Rain = 0
KLE1 131320Z 27000KT 00/M07 A3034 RMK A01 T00011068  RH  060%=      5-min Rain = 0
KLE1 131321Z 27000KT M00/M07 A3034 RMK A01 T10011069  RH  060%=      5-min Rain = 0
KLE1 131322Z 26001KT M00/M07 A3034 RMK A01 T10021070  RH  060%=      5-min Rain = 0
KLE1 131323Z 26000KT M00/M07 A3034 RMK A01 T10031070  RH  061%=      5-min Rain = 0
KLE1 131324Z 25000KT M00/M07 A3034 RMK A01 T10041069  RH  061%=      5-min Rain = 0
KLE1 131325Z 00000KT M00/M07 A3034 RMK A01 T10041068  RH  062%=      5-min Rain = 0
KLE1 131326Z 00000KT M00/M07 A3034 RMK A01 T10031069  RH  061%=      5-min Rain = 0
KLE1 131327Z 00000KT M00/M07 A3034 RMK A01 T10031070  RH  061%=      5-min Rain = 0
KLE1 131328Z 00000KT M00/M07 A3034 RMK A01 T10031070  RH  061%=      5-min Rain = 0
KLE1 131329Z 00000KT M00/M07 A3034 RMK A01 T10041070  RH  061%=      5-min Rain = 0
KLE1 131330Z 24000KT M00/M07 A3034 RMK A01 T10041068  RH  062%=      5-min Rain = 0
KLE1 131331Z 00000KT M00/M07 A3035 RMK A01 T10041066  RH  063%=      5-min Rain = 0
KLE1 131332Z 28000KT M00/M06 A3035 RMK A01 T10041064  RH  064%=      5-min Rain = 0
KLE1 131333Z 28001KT M01/M06 A3035 RMK A01 T10051064  RH  064%=      5-min Rain = 0
KLE1 131334Z 28001KT M01/M06 A3035 RMK A01 T10051064  RH  064%=      5-min Rain = 0
KLE1 131335Z 27001KT M01/M06 A3035 RMK A01 T10051063  RH  065%=      5-min Rain = 0
KLE1 131336Z 27002KT M01/M06 A3035 RMK A01 T10051061  RH  066%=      5-min Rain = 0
KLE1 131337Z 27002KT M01/M06 A3035 RMK A01 T10051061  RH  066%=      5-min Rain = 0
KLE1 131338Z 27001KT M00/M06 A3035 RMK A01 T10041061  RH  065%=      5-min Rain = 0
KLE1 131339Z 27002KT M00/M06 A3035 RMK A01 T10041062  RH  065%=      5-min Rain = 0
KLE1 131340Z 27001KT M00/M06 A3035 RMK A01 T10041062  RH  065%=      5-min Rain = 0
KLE1 131341Z 28001KT M00/M06 A3035 RMK A01 T10041062  RH  065%=      5-min Rain = 0
KLE1 131342Z 28002KT M00/M06 A3035 RMK A01 T10031063  RH  064%=      5-min Rain = 0
KLE1 131343Z 29002KT M00/M06 A3035 RMK A01 T10031063  RH  064%=      5-min Rain = 0
KLE1 131344Z 29002KT M00/M06 A3035 RMK A01 T10031062  RH  064%=      5-min Rain = 0
KLE1 131345Z 29002KT M00/M06 A3035 RMK A01 T10021062  RH  064%=      5-min Rain = 0
KLE1 131346Z 29002KT M00/M06 A3035 RMK A01 T10011062  RH  064%=      5-min Rain = 0
KLE1 131347Z 28002KT M00/M06 A3035 RMK A01 T10011062  RH  064%=      5-min Rain = 0
KLE1 131348Z 29002KT 00/06 A3035 RMK A01 T00-00-61  RH  064%=      5-min Rain = 0
KLE1 131349Z 28002KT 00/06 A3035 RMK A01 T00000-61  RH  063%=      5-min Rain = 0
KLE1 131350Z 28002KT 00/M06 A3035 RMK A01 T00011061  RH  063%=      5-min Rain = 0
KLE1 131351Z 28002KT 00/M06 A3035 RMK A01 T00021060  RH  063%=      5-min Rain = 0
KLE1 131352Z 29002KT 00/M06 A3035 RMK A01 T00021060  RH  063%=      5-min Rain = 0
KLE1 131353Z 29002KT 00/M06 A3035 RMK A01 T00031059  RH  063%=      5-min Rain = 0
KLE1 131354Z 31002KT 00/M06 A3035 RMK A01 T00031060  RH  062%=      5-min Rain = 0
KLE1 131355Z 30002KT 00/M06 A3035 RMK A01 T00041061  RH  062%=      5-min Rain = 0
KLE1 131356Z 30002KT 00/M06 A3035 RMK A01 T00041060  RH  062%=      5-min Rain = 0
KLE1 131357Z 30002KT 01/M06 A3035 RMK A01 T00051059  RH  062%=      5-min Rain = 0
KLE1 131358Z 30002KT 01/M06 A3035 RMK A01 T00061060  RH  061%=      5-min Rain = 0
KLE1 131359Z 31002KT 01/M06 A3035 RMK A01 T00061061  RH  061%=      5-min Rain = 0
KLE1 131400Z 31002KT 01/M06 A3035 RMK A01 T00061060  RH  061%=      5-min Rain = 0
KLE1 131401Z 31002KT 01/M06 A3035 RMK A01 T00071059  RH  061%=      5-min Rain = 0
KLE1 131402Z 33002KT 01/M06 A3035 RMK A01 T00081059  RH  061%=      5-min Rain = 0
KLE1 131403Z 32002KT 01/M06 A3035 RMK A01 T00101058  RH  060%=      5-min Rain = 0
KLE1 131404Z 33001KT 01/M06 A3035 RMK A01 T00121059  RH  059%=      5-min Rain = 0
KLE1 131405Z 31002KT 01/M06 A3035 RMK A01 T00121059  RH  059%=      5-min Rain = 0
KLE1 131406Z 31001KT 01/M06 A3035 RMK A01 T00131060  RH  058%=      5-min Rain = 0
KLE1 131407Z 30001KT 01/M06 A3035 RMK A01 T00141060  RH  058%=      5-min Rain = 0
KLE1 131408Z 32001KT 02/M06 A3035 RMK A01 T00151060  RH  058%=      5-min Rain = 0
KLE1 131409Z 31001KT 02/M06 A3036 RMK A01 T00151060  RH  057%=      5-min Rain = 0
KLE1 131410Z 30001KT 02/M06 A3036 RMK A01 T00161060  RH  057%=      5-min Rain = 0
KLE1 131411Z 29001KT 02/M06 A3036 RMK A01 T00171059  RH  057%=      5-min Rain = 0
KLE1 131412Z 28001KT 02/M06 A3036 RMK A01 T00191058  RH  057%=      5-min Rain = 0
KLE1 131413Z 27001KT 02/M06 A3036 RMK A01 T00211057  RH  056%=      5-min Rain = 0
KLE1 131414Z 27002KT 02/M06 A3036 RMK A01 T00221056  RH  056%=      5-min Rain = 0
KLE1 131415Z 27001KT 02/M06 A3036 RMK A01 T00241056  RH  056%=      5-min Rain = 0
KLE1 131416Z 28002KT 03/M06 A3036 RMK A01 T00251056  RH  055%=      5-min Rain = 0
KLE1 131417Z 28001KT 03/M06 A3036 RMK A01 T00271055  RH  055%=      5-min Rain = 0
KLE1 131418Z 28001KT 03/M06 A3036 RMK A01 T00281056  RH  054%=      5-min Rain = 0
KLE1 131419Z 28002KT 03/M06 A3036 RMK A01 T00291056  RH  054%=      5-min Rain = 0
KLE1 131420Z 29001KT 03/M06 A3037 RMK A01 T00291057  RH  053%=      5-min Rain = 0
KLE1 131421Z 28002KT 03/M06 A3037 RMK A01 T00291057  RH  053%=      5-min Rain = 0
KLE1 131422Z 27002KT 03/M06 A3037 RMK A01 T00301057  RH  053%=      5-min Rain = 0
KLE1 131423Z 27002KT 03/M06 A3037 RMK A01 T00311057  RH  052%=      5-min Rain = 0
KLE1 131424Z 26002KT 03/M06 A3037 RMK A01 T00321057  RH  052%=      5-min Rain = 0
KLE1 131425Z 26002KT 03/M06 A3037 RMK A01 T00341055  RH  052%=      5-min Rain = 0
KLE1 131426Z 28002KT 04/M06 A3037 RMK A01 T00351056  RH  051%=      5-min Rain = 0
KLE1 131427Z 27002KT 04/M06 A3037 RMK A01 T00361057  RH  051%=      5-min Rain = 0
KLE1 131428Z 27002KT 04/M06 A3037 RMK A01 T00371055  RH  051%=      5-min Rain = 0
KLE1 131429Z 26002KT 04/M06 A3037 RMK A01 T00381056  RH  050%=      5-min Rain = 0
KLE1 131430Z 27002KT 04/M06 A3037 RMK A01 T00391056  RH  050%=      5-min Rain = 0
KLE1 131431Z 27002KT 04/M06 A3037 RMK A01 T00391056  RH  050%=      5-min Rain = 0
KLE1 131432Z 27002KT 04/M06 A3037 RMK A01 T00411056  RH  050%=      5-min Rain = 0
KLE1 131433Z 27002KT 04/M06 A3037 RMK A01 T00421056  RH  049%=      5-min Rain = 0
KLE1 131434Z 26002KT 04/M06 A3037 RMK A01 T00421057  RH  048%=      5-min Rain = 0
KLE1 131435Z 27001KT 04/M06 A3037 RMK A01 T00431056  RH  049%=      5-min Rain = 0
KLE1 131436Z 26002KT 04/M06 A3037 RMK A01 T00441055  RH  048%=      5-min Rain = 0
KLE1 131437Z 26001KT 05/M06 A3037 RMK A01 T00451056  RH  048%=      5-min Rain = 0
KLE1 131438Z 25002KT 05/M06 A3037 RMK A01 T00451055  RH  048%=      5-min Rain = 0
KLE1 131439Z 26002KT 05/M06 A3037 RMK A01 T00461055  RH  048%=      5-min Rain = 0
KLE1 131440Z 24002KT 05/M06 A3037 RMK A01 T00461055  RH  048%=      5-min Rain = 0
KLE1 131441Z 23002KT 05/M05 A3037 RMK A01 T00461054  RH  048%=      5-min Rain = 0
KLE1 131442Z 22001KT 05/M05 A3037 RMK A01 T00471054  RH  048%=      5-min Rain = 0
KLE1 131443Z 21000KT 05/M05 A3037 RMK A01 T00491053  RH  048%=      5-min Rain = 0
KLE1 131444Z 18000KT 05/M05 A3037 RMK A01 T00511054  RH  047%=      5-min Rain = 0
KLE1 131445Z 27000KT 05/M05 A3037 RMK A01 T00531054  RH  046%=      5-min Rain = 0
KLE1 131446Z 19001KT 06/M05 A3037 RMK A01 T00561053  RH  046%=      5-min Rain = 0
KLE1 131447Z 19001KT 06/M05 A3037 RMK A01 T00581052  RH  045%=      5-min Rain = 0
KLE1 131448Z 18001KT 06/M05 A3037 RMK A01 T00581052  RH  045%=      5-min Rain = 0
KLE1 131449Z 14001KT 06/M05 A3037 RMK A01 T00591053  RH  044%=      5-min Rain = 0
KLE1 131450Z 12002KT 06/M05 A3037 RMK A01 T00621052  RH  044%=      5-min Rain = 0
KLE1 131451Z 12001KT 07/M05 A3037 RMK A01 T00651053  RH  043%=      5-min Rain = 0
KLE1 131452Z 12001KT 07/M06 A3037 RMK A01 T00671055  RH  041%=      5-min Rain = 0
KLE1 131453Z 11003KT 07/M06 A3037 RMK A01 T00701056  RH  041%=      5-min Rain = 0
KLE1 131454Z 11001KT 07/M06 A3037 RMK A01 T00711057  RH  040%=      5-min Rain = 0
KLE1 131455Z 15002KT 07/M06 A3037 RMK A01 T00711059  RH  039%=      5-min Rain = 0
KLE1 131456Z 10002KT 07/M06 A3037 RMK A01 T00701058  RH  039%=      5-min Rain = 0
KLE1 131457Z 07003KT 07/M06 A3037 RMK A01 T00711057  RH  040%=      5-min Rain = 0
KLE1 131458Z 08004KT 07/M06 A3037 RMK A01 T00721058  RH  039%=      5-min Rain = 0
KLE1 131459Z 07003KT 07/M06 A3037 RMK A01 T00721059  RH  039%=      5-min Rain = 0
KLE1 131500Z 14002KT 07/M06 A3037 RMK A01 T00711059  RH  039%=      5-min Rain = 0
KLE1 131501Z 09002KT 07/M06 A3037 RMK A01 T00731056  RH  039%=      5-min Rain = 0
KLE1 131502Z 13000KT 08/M06 A3037 RMK A01 T00751058  RH  038%=      5-min Rain = 0
KLE1 131503Z 16002KT 08/M06 A3037 RMK A01 T00751057  RH  038%=      5-min Rain = 0
KLE1 131504Z 14002KT 07/M06 A3037 RMK A01 T00741059  RH  038%=      5-min Rain = 0
KLE1 131505Z 14002KT 07/M06 A3037 RMK A01 T00731057  RH  039%=      5-min Rain = 0
KLE1 131506Z 14004KT 07/M06 A3037 RMK A01 T00741057  RH  039%=      5-min Rain = 0
KLE1 131507Z 15002KT 07/M06 A3037 RMK A01 T00741057  RH  039%=      5-min Rain = 0
KLE1 131508Z 16002KT 07/M06 A3037 RMK A01 T00741057  RH  039%=      5-min Rain = 0
KLE1 131509Z 14003KT 07/M06 A3037 RMK A01 T00731057  RH  039%=      5-min Rain = 0
KLE1 131510Z 13004KT 07/M06 A3037 RMK A01 T00731057  RH  039%=      5-min Rain = 0
KLE1 131511Z 13003KT 07/M06 A3037 RMK A01 T00741056  RH  039%=      5-min Rain = 0
KLE1 131512Z 14004KT 08/M06 A3037 RMK A01 T00761058  RH  038%=      5-min Rain = 0
KLE1 131513Z 15003KT 08/M06 A3037 RMK A01 T00761058  RH  038%=      5-min Rain = 0
KLE1 131514Z 15004KT 08/M06 A3037 RMK A01 T00761058  RH  038%=      5-min Rain = 0
KLE1 131515Z 15004KT 08/M06 A3037 RMK A01 T00771056  RH  039%=      5-min Rain = 0
KLE1 131516Z 15003KT 08/M06 A3037 RMK A01 T00781056  RH  038%=      5-min Rain = 0
KLE1 131517Z 16003KT 08/M06 A3037 RMK A01 T00781057  RH  038%=      5-min Rain = 0
KLE1 131518Z 13003KT 08/M06 A3037 RMK A01 T00761058  RH  038%=      5-min Rain = 0
KLE1 131519Z 14003KT 08/M06 A3037 RMK A01 T00751058  RH  038%=      5-min Rain = 0
KLE1 131520Z 16002KT 07/M06 A3037 RMK A01 T00741057  RH  039%=      5-min Rain = 0
KLE1 131521Z 15004KT 07/M06 A3037 RMK A01 T00741056  RH  039%=      5-min Rain = 0
KLE1 131522Z 16002KT 07/M06 A3037 RMK A01 T00741056  RH  039%=      5-min Rain = 0
KLE1 131523Z 13003KT 07/M06 A3037 RMK A01 T00741055  RH  039%=      5-min Rain = 0
KLE1 131524Z 13004KT 07/M06 A3037 RMK A01 T00731056  RH  039%=      5-min Rain = 0
KLE1 131525Z 13002KT 07/M06 A3037 RMK A01 T00731057  RH  039%=      5-min Rain = 0
KLE1 131526Z 15004KT 07/M06 A3037 RMK A01 T00731056  RH  039%=      5-min Rain = 0
KLE1 131527Z 15005KT 07/M06 A3037 RMK A01 T00741055  RH  039%=      5-min Rain = 0
KLE1 131528Z 15004KT 07/M06 A3037 RMK A01 T00741055  RH  039%=      5-min Rain = 0
KLE1 131529Z 17004KT 07/M06 A3037 RMK A01 T00741055  RH  039%=      5-min Rain = 0
KLE1 131530Z 16004KT 08/M05 A3037 RMK A01 T00771052  RH  040%=      5-min Rain = 0
KLE1 131531Z 16005KT 08/M05 A3037 RMK A01 T00771053  RH  039%=      5-min Rain = 0
KLE1 131532Z 16006KT 08/M05 A3037 RMK A01 T00791052  RH  039%=      5-min Rain = 0
KLE1 131533Z 16005KT 08/M05 A3037 RMK A01 T00791052  RH  039%=      5-min Rain = 0
KLE1 131534Z 18005KT 08/M05 A3037 RMK A01 T00771054  RH  039%=      5-min Rain = 0
KLE1 131535Z 18005KT 08/M05 A3037 RMK A01 T00771054  RH  039%=      5-min Rain = 0
KLE1 131536Z 17005KT 08/M05 A3037 RMK A01 T00771054  RH  039%=      5-min Rain = 0
KLE1 131537Z 15005KT 08/M05 A3037 RMK A01 T00771053  RH  039%=      5-min Rain = 0
KLE1 131538Z 15004KT 08/M05 A3038 RMK A01 T00801052  RH  039%=      5-min Rain = 0
KLE1 131539Z 16004KT 08/M06 A3038 RMK A01 T00801055  RH  038%=      5-min Rain = 0
KLE1 131540Z 18004KT 08/M05 A3038 RMK A01 T00791054  RH  038%=      5-min Rain = 0
KLE1 131541Z 18003KT 08/M05 A3038 RMK A01 T00791054  RH  038%=      5-min Rain = 0
KLE1 131542Z 20001KT 08/M05 A3038 RMK A01 T00791054  RH  038%=      5-min Rain = 0
KLE1 131543Z 12003KT 08/M05 A3037 RMK A01 T00801052  RH  039%=      5-min Rain = 0
KLE1 131544Z 13004KT 08/M05 A3038 RMK A01 T00841052  RH  038%=      5-min Rain = 0
KLE1 131545Z 15003KT 09/M05 A3038 RMK A01 T00851054  RH  037%=      5-min Rain = 0
KLE1 131546Z 14003KT 09/M05 A3038 RMK A01 T00871052  RH  037%=      5-min Rain = 0
KLE1 131547Z 14005KT 09/M05 A3038 RMK A01 T00901052  RH  036%=      5-min Rain = 0
KLE1 131548Z 17006KT 09/M05 A3037 RMK A01 T00911054  RH  035%=      5-min Rain = 0
KLE1 131549Z 17007KT 09/M06 A3037 RMK A01 T00911055  RH  035%=      5-min Rain = 0
KLE1 131550Z 17005KT 09/M06 A3037 RMK A01 T00891057  RH  035%=      5-min Rain = 0
KLE1 131551Z 15006KT 09/M06 A3037 RMK A01 T00881056  RH  035%=      5-min Rain = 0
KLE1 131552Z 15004KT 09/M06 A3037 RMK A01 T00881057  RH  035%=      5-min Rain = 0
KLE1 131553Z 14005KT 09/M06 A3037 RMK A01 T00881057  RH  035%=      5-min Rain = 0
KLE1 131554Z 13004KT 09/M06 A3038 RMK A01 T00881058  RH  035%=      5-min Rain = 0
KLE1 131555Z 14005KT 09/M06 A3037 RMK A01 T00891058  RH  035%=      5-min Rain = 0
KLE1 131556Z 11006KT 09/M06 A3037 RMK A01 T00921057  RH  034%=      5-min Rain = 0
KLE1 131557Z 14004KT 09/M06 A3037 RMK A01 T00921059  RH  034%=      5-min Rain = 0
KLE1 131558Z 14004KT 09/M06 A3037 RMK A01 T00941060  RH  033%=      5-min Rain = 0
KLE1 131559Z 12004KT 09/M06 A3037 RMK A01 T00931061  RH  033%=      5-min Rain = 0
KLE1 131600Z 13006KT 09/M06 A3037 RMK A01 T00921061  RH  033%=      5-min Rain = 0
KLE1 131601Z 14006KT 10/M06 A3037 RMK A01 T00951060  RH  033%=      5-min Rain = 0
KLE1 131602Z 13008KT 10/M06 A3037 RMK A01 T00961062  RH  032%=      5-min Rain = 0
KLE1 131603Z 13008KT 10/M06 A3037 RMK A01 T00981061  RH  032%=      5-min Rain = 0
KLE1 131604Z 11006KT 10/M06 A3038 RMK A01 T01001059  RH  032%=      5-min Rain = 0
KLE1 131605Z 14007KT 10/M06 A3037 RMK A01 T01021058  RH  032%=      5-min Rain = 0
KLE1 131606Z 12008KT 10/M06 A3037 RMK A01 T01041060  RH  031%=      5-min Rain = 0
KLE1 131607Z 11007KT 10/M06 A3037 RMK A01 T01031061  RH  031%=      5-min Rain = 0
KLE1 131608Z 12007KT 10/M06 A3037 RMK A01 T01011061  RH  031%=      5-min Rain = 0
KLE1 131609Z 09008KT 10/M06 A3037 RMK A01 T01001061  RH  032%=      5-min Rain = 0
KLE1 131610Z 09007KT 10/M06 A3037 RMK A01 T01001061  RH  032%=      5-min Rain = 0
KLE1 131611Z 10006KT 10/M06 A3037 RMK A01 T01001060  RH  032%=      5-min Rain = 0
KLE1 131612Z 09007KT 10/M06 A3038 RMK A01 T01041056  RH  032%=      5-min Rain = 0
KLE1 131613Z 10007KT 11/M06 A3038 RMK A01 T01061058  RH  031%=      5-min Rain = 0
KLE1 131614Z 11006KT 10/M06 A3038 RMK A01 T01041061  RH  031%=      5-min Rain = 0
KLE1 131615Z 13008KT 10/M06 A3038 RMK A01 T01031060  RH  031%=      5-min Rain = 0
KLE1 131616Z 13007KT 10/M06 A3038 RMK A01 T01021061  RH  031%=      5-min Rain = 0
KLE1 131617Z 10006KT 10/M06 A3038 RMK A01 T01021060  RH  031%=      5-min Rain = 0
KLE1 131618Z 09007KT 10/M06 A3037 RMK A01 T01031060  RH  031%=      5-min Rain = 0
KLE1 131619Z 12008KT 10/M06 A3037 RMK A01 T01031059  RH  032%=      5-min Rain = 0
KLE1 131620Z 12007KT 10/M06 A3037 RMK A01 T01041058  RH  031%=      5-min Rain = 0
KLE1 131621Z 11007KT 10/M06 A3037 RMK A01 T01041058  RH  031%=      5-min Rain = 0
KLE1 131622Z 13009KT 11/M06 A3037 RMK A01 T01051057  RH  032%=      5-min Rain = 0
KLE1 131623Z 13008KT 11/M06 A3037 RMK A01 T01071056  RH  031%=      5-min Rain = 0
KLE1 131624Z 11007KT 11/M06 A3037 RMK A01 T01071058  RH  031%=      5-min Rain = 0
KLE1 131625Z 12008G13KT 11/M06 A3037 RMK A01 T01081057  RH  031%=      5-min Rain = 0
KLE1 131626Z 12008KT 11/M06 A3037 RMK A01 T01111055  RH  031%=      5-min Rain = 0
KLE1 131627Z 11008KT 11/M06 A3037 RMK A01 T01111057  RH  030%=      5-min Rain = 0
KLE1 131628Z 11012KT 11/M06 A3037 RMK A01 T01091059  RH  030%=      5-min Rain = 0
KLE1 131629Z 11010KT 11/M06 A3037 RMK A01 T01091060  RH  030%=      5-min Rain = 0
KLE1 131630Z 12009KT 11/M06 A3038 RMK A01 T01091060  RH  030%=      5-min Rain = 0
KLE1 131631Z 10010KT 11/M06 A3038 RMK A01 T01091061  RH  030%=      5-min Rain = 0
KLE1 131632Z 11010KT 11/M06 A3038 RMK A01 T01081061  RH  030%=      5-min Rain = 0
KLE1 131633Z 11007KT 11/M06 A3038 RMK A01 T01071062  RH  030%=      5-min Rain = 0
KLE1 131634Z 11011KT 11/M06 A3038 RMK A01 T01081059  RH  030%=      5-min Rain = 0
KLE1 131635Z 11010KT 11/M06 A3038 RMK A01 T01101059  RH  030%=      5-min Rain = 0
KLE1 131636Z 11009KT 11/M06 A3038 RMK A01 T01121060  RH  029%=      5-min Rain = 0
KLE1 131637Z 13007KT 11/M06 A3038 RMK A01 T01091060  RH  030%=      5-min Rain = 0
KLE1 131638Z 11009KT 11/M06 A3038 RMK A01 T01121056  RH  030%=      5-min Rain = 0
KLE1 131639Z 11009KT 11/M06 A3038 RMK A01 T01141058  RH  029%=      5-min Rain = 0
KLE1 131640Z 11009KT 11/M06 A3038 RMK A01 T01121059  RH  030%=      5-min Rain = 0
KLE1 131641Z 11007KT 11/M06 A3038 RMK A01 T01131058  RH  030%=      5-min Rain = 0
KLE1 131642Z 10011KT 11/M06 A3038 RMK A01 T01131058  RH  030%=      5-min Rain = 0
KLE1 131643Z 10011KT 11/M06 A3038 RMK A01 T01131057  RH  030%=      5-min Rain = 0
KLE1 131644Z 11009KT 11/M06 A3038 RMK A01 T01131058  RH  030%=      5-min Rain = 0
KLE1 131645Z 11006KT 11/M06 A3038 RMK A01 T01111059  RH  030%=      5-min Rain = 0
KLE1 131646Z 10009KT 11/M06 A3038 RMK A01 T01101057  RH  030%=      5-min Rain = 0
KLE1 131647Z 09008KT 11/M06 A3038 RMK A01 T01111056  RH  030%=      5-min Rain = 0
KLE1 131648Z 09009KT 12/M05 A3038 RMK A01 T01171053  RH  030%=      5-min Rain = 0
KLE1 131649Z 11008KT 12/M05 A3038 RMK A01 T01181054  RH  029%=      5-min Rain = 0
KLE1 131650Z 10010KT 12/M06 A3038 RMK A01 T01191055  RH  029%=      5-min Rain = 0
KLE1 131651Z 11011KT 12/M06 A3038 RMK A01 T01181056  RH  029%=      5-min Rain = 0
KLE1 131652Z 10009KT 12/M06 A3038 RMK A01 T01161056  RH  029%=      5-min Rain = 0
KLE1 131653Z 11009KT 12/M06 A3038 RMK A01 T01151055  RH  030%=      5-min Rain = 0
KLE1 131654Z 10009KT 12/M06 A3038 RMK A01 T01171055  RH  030%=      5-min Rain = 0
KLE1 131655Z 10009KT 12/M06 A3038 RMK A01 T01171055  RH  030%=      5-min Rain = 0
KLE1 131656Z 09008KT 12/M05 A3037 RMK A01 T01181054  RH  030%=      5-min Rain = 0
KLE1 131657Z 11007KT 12/M05 A3038 RMK A01 T01211051  RH  030%=      5-min Rain = 0
KLE1 131658Z 11007KT 13/M05 A3038 RMK A01 T01251051  RH  029%=      5-min Rain = 0
KLE1 131659Z 12008KT 12/M05 A3037 RMK A01 T01241053  RH  029%=      5-min Rain = 0
KLE1 131700Z 10010KT 12/M06 A3037 RMK A01 T01201055  RH  029%=      5-min Rain = 0
KLE1 131701Z 11009KT 12/M06 A3037 RMK A01 T01161057  RH  029%=      5-min Rain = 0
KLE1 131702Z 11009KT 11/M06 A3037 RMK A01 T01141056  RH  030%=      5-min Rain = 0
KLE1 131703Z 10007KT 11/M06 A3037 RMK A01 T01131055  RH  030%=      5-min Rain = 0
KLE1 131704Z 09007KT 11/M05 A3037 RMK A01 T01141054  RH  030%=      5-min Rain = 0
KLE1 131705Z 12007KT 12/M05 A3037 RMK A01 T01181051  RH  030%=      5-min Rain = 0
KLE1 131706Z 11005KT 12/M05 A3037 RMK A01 T01201054  RH  029%=      5-min Rain = 0
KLE1 131707Z 09008KT 12/M05 A3037 RMK A01 T01201052  RH  030%=      5-min Rain = 0
KLE1 131708Z 10011KT 12/M05 A3037 RMK A01 T01221051  RH  029%=      5-min Rain = 0
KLE1 131709Z 11010KT 12/M05 A3037 RMK A01 T01221053  RH  029%=      5-min Rain = 0
KLE1 131710Z 11008KT 12/M05 A3037 RMK A01 T01201054  RH  029%=      5-min Rain = 0
KLE1 131711Z 09010KT 12/M06 A3037 RMK A01 T01161055  RH  030%=      5-min Rain = 0
KLE1 131712Z 09008KT 12/M06 A3037 RMK A01 T01151055  RH  030%=      5-min Rain = 0
KLE1 131713Z 11009KT 12/M05 A3037 RMK A01 T01161053  RH  030%=      5-min Rain = 0
KLE1 131714Z 11009KT 12/M05 A3037 RMK A01 T01191051  RH  030%=      5-min Rain = 0
KLE1 131715Z 11009KT 12/M05 A3037 RMK A01 T01221050  RH  030%=      5-min Rain = 0
KLE1 131716Z 12008KT 12/M05 A3037 RMK A01 T01221052  RH  029%=      5-min Rain = 0
KLE1 131717Z 10007KT 12/M05 A3037 RMK A01 T01211053  RH  029%=      5-min Rain = 0
KLE1 131718Z 10005KT 12/M06 A3037 RMK A01 T01171056  RH  029%=      5-min Rain = 0
KLE1 131719Z 10007KT 12/M06 A3037 RMK A01 T01151055  RH  030%=      5-min Rain = 0
KLE1 131720Z 10008KT 12/M05 A3037 RMK A01 T01201051  RH  030%=      5-min Rain = 0
KLE1 131721Z 11009KT 12/M05 A3037 RMK A01 T01231051  RH  029%=      5-min Rain = 0
KLE1 131722Z 13009KT 12/M05 A3037 RMK A01 T01221052  RH  029%=      5-min Rain = 0
KLE1 131723Z 14008KT 12/M05 A3037 RMK A01 T01231051  RH  029%=      5-min Rain = 0
KLE1 131724Z 13006KT 12/M05 A3037 RMK A01 T01231053  RH  029%=      5-min Rain = 0
KLE1 131725Z 11009KT 12/M05 A3037 RMK A01 T01221053  RH  029%=      5-min Rain = 0
KLE1 131726Z 10008KT 12/M05 A3037 RMK A01 T01211054  RH  029%=      5-min Rain = 0
KLE1 131727Z 10006KT 12/M05 A3037 RMK A01 T01231052  RH  029%=      5-min Rain = 0
KLE1 131728Z 10005KT 12/M06 A3037 RMK A01 T01221055  RH  029%=      5-min Rain = 0
KLE1 131729Z 09003KT 12/M05 A3037 RMK A01 T01201052  RH  030%=      5-min Rain = 0
KLE1 131730Z 10010KT 13/M05 A3037 RMK A01 T01251050  RH  029%=      5-min Rain = 0
KLE1 131731Z 11007KT 13/M05 A3037 RMK A01 T01251054  RH  028%=      5-min Rain = 0
KLE1 131732Z 11006KT 12/M05 A3037 RMK A01 T01241054  RH  028%=      5-min Rain = 0
KLE1 131733Z 12005KT 12/M06 A3037 RMK A01 T01231055  RH  028%=      5-min Rain = 0
KLE1 131734Z 08006KT 12/M05 A3037 RMK A01 T01231054  RH  029%=      5-min Rain = 0
KLE1 131735Z 10009KT 13/M05 A3037 RMK A01 T01251054  RH  028%=      5-min Rain = 0
KLE1 131736Z 10008KT 13/M05 A3037 RMK A01 T01261054  RH  028%=      5-min Rain = 0
KLE1 131737Z 12007KT 13/M06 A3037 RMK A01 T01261055  RH  028%=      5-min Rain = 0
KLE1 131738Z 12009KT 13/M06 A3037 RMK A01 T01271055  RH  028%=      5-min Rain = 0
KLE1 131739Z 11007KT 12/M06 A3037 RMK A01 T01241057  RH  028%=      5-min Rain = 0
KLE1 131740Z 10010KT 13/M05 A3037 RMK A01 T01251054  RH  028%=      5-min Rain = 0
KLE1 131741Z 10010KT 13/M05 A3037 RMK A01 T01281053  RH  028%=      5-min Rain = 0
KLE1 131742Z 11008KT 13/M05 A3037 RMK A01 T01291054  RH  027%=      5-min Rain = 0
KLE1 131743Z 12007G12KT 13/M06 A3037 RMK A01 T01281055  RH  028%=      5-min Rain = 0
KLE1 131744Z 11008KT 13/M06 A3037 RMK A01 T01271055  RH  028%=      5-min Rain = 0
KLE1 131745Z 12007KT 13/M06 A3037 RMK A01 T01271056  RH  027%=      5-min Rain = 0
KLE1 131746Z 12010KT 13/M05 A3037 RMK A01 T01311052  RH  028%=      5-min Rain = 0
KLE1 131747Z 13008KT 13/M06 A3037 RMK A01 T01331057  RH  026%=      5-min Rain = 0
KLE1 131748Z 14007KT 13/M06 A3036 RMK A01 T01291059  RH  027%=      5-min Rain = 0
KLE1 131749Z 11007KT 13/M06 A3036 RMK A01 T01281057  RH  027%=      5-min Rain = 0
KLE1 131750Z 08009KT 13/M05 A3036 RMK A01 T01331053  RH  027%=      5-min Rain = 0
KLE1 131751Z 10009KT 13/M06 A3036 RMK A01 T01331056  RH  026%=      5-min Rain = 0
KLE1 131752Z 10009KT 13/M06 A3036 RMK A01 T01311057  RH  026%=      5-min Rain = 0
KLE1 131753Z 07006KT 13/M06 A3036 RMK A01 T01301056  RH  027%=      5-min Rain = 0
KLE1 131754Z 09008KT 13/M05 A3036 RMK A01 T01331054  RH  027%=      5-min Rain = 0
KLE1 131755Z 08006KT 13/M06 A3036 RMK A01 T01311057  RH  027%=      5-min Rain = 0
KLE1 131756Z 09006KT 13/M06 A3036 RMK A01 T01301055  RH  027%=      5-min Rain = 0
KLE1 131757Z 11005KT 13/M06 A3036 RMK A01 T01301056  RH  027%=      5-min Rain = 0
KLE1 131758Z 10008KT 13/M06 A3036 RMK A01 T01311055  RH  027%=      5-min Rain = 0
KLE1 131759Z 11010KT 13/M06 A3036 RMK A01 T01311055  RH  027%=      5-min Rain = 0
KLE1 131800Z 16010KT 13/M06 A3036 RMK A01 T01321055  RH  027%=      5-min Rain = 0
KLE1 131801Z 14006KT 13/M05 A3036 RMK A01 T01321054  RH  027%=      5-min Rain = 0
KLE1 131802Z 15006KT 13/M05 A3036 RMK A01 T01341053  RH  027%=      5-min Rain = 0
KLE1 131803Z 12004KT 14/M05 A3036 RMK A01 T01351053  RH  027%=      5-min Rain = 0
KLE1 131804Z 08009KT 14/M05 A3036 RMK A01 T01361052  RH  027%=      5-min Rain = 0
KLE1 131805Z 10008KT 14/M05 A3036 RMK A01 T01371053  RH  026%=      5-min Rain = 0
KLE1 131806Z 11010KT 14/M05 A3036 RMK A01 T01361053  RH  026%=      5-min Rain = 0
KLE1 131807Z 11009KT 14/M05 A3035 RMK A01 T01361053  RH  027%=      5-min Rain = 0
KLE1 131808Z 13007KT 14/M05 A3035 RMK A01 T01371053  RH  026%=      5-min Rain = 0
KLE1 131809Z 11009KT 14/M05 A3035 RMK A01 T01401048  RH  027%=      5-min Rain = 0
KLE1 131810Z 12009KT 14/M05 A3035 RMK A01 T01431050  RH  026%=      5-min Rain = 0
KLE1 131811Z 10007KT 14/M05 A3035 RMK A01 T01401053  RH  026%=      5-min Rain = 0
KLE1 131812Z 09005KT 14/M05 A3035 RMK A01 T01361054  RH  026%=      5-min Rain = 0
KLE1 131813Z 12004KT 13/M05 A3035 RMK A01 T01341054  RH  027%=      5-min Rain = 0
KLE1 131814Z 14008KT 14/M05 A3035 RMK A01 T01351052  RH  027%=      5-min Rain = 0
KLE1 131815Z 16008KT 14/M05 A3035 RMK A01 T01391049  RH  027%=      5-min Rain = 0
KLE1 131816Z 15008KT 14/M05 A3035 RMK A01 T01411052  RH  026%=      5-min Rain = 0
KLE1 131817Z 14008KT 14/M05 A3035 RMK A01 T01381053  RH  026%=      5-min Rain = 0
KLE1 131818Z 13006KT 14/M05 A3035 RMK A01 T01401052  RH  026%=      5-min Rain = 0
KLE1 131819Z 13008KT 14/M05 A3035 RMK A01 T01411051  RH  026%=      5-min Rain = 0
KLE1 131820Z 13006KT 14/M05 A3035 RMK A01 T01411054  RH  025%=      5-min Rain = 0
KLE1 131821Z 11008KT 14/M06 A3035 RMK A01 T01371055  RH  026%=      5-min Rain = 0
KLE1 131822Z 11009KT 14/M05 A3035 RMK A01 T01351054  RH  026%=      5-min Rain = 0
KLE1 131823Z 13008KT 14/M05 A3035 RMK A01 T01361054  RH  026%=      5-min Rain = 0
KLE1 131824Z 14009KT 14/M05 A3034 RMK A01 T01351054  RH  026%=      5-min Rain = 0
KLE1 131825Z 14008KT 14/M05 A3034 RMK A01 T01361053  RH  026%=      5-min Rain = 0
KLE1 131826Z 13007KT 14/M06 A3034 RMK A01 T01371055  RH  026%=      5-min Rain = 0
KLE1 131827Z 15005KT 14/M06 A3034 RMK A01 T01351055  RH  026%=      5-min Rain = 0
KLE1 131828Z 13005KT 14/M06 A3034 RMK A01 T01361055  RH  026%=      5-min Rain = 0
KLE1 131829Z 11007KT 14/M05 A3034 RMK A01 T01371054  RH  026%=      5-min Rain = 0
KLE1 131830Z 09007KT 14/M05 A3034 RMK A01 T01381053  RH  026%=      5-min Rain = 0
KLE1 131831Z 09009KT 14/M05 A3034 RMK A01 T01431050  RH  026%=      5-min Rain = 0
KLE1 131832Z 09009KT 14/M05 A3034 RMK A01 T01441053  RH  025%=      5-min Rain = 0
KLE1 131833Z 10008KT 14/M05 A3034 RMK A01 T01421054  RH  025%=      5-min Rain = 0
KLE1 131834Z 09009KT 14/M05 A3034 RMK A01 T01421052  RH  026%=      5-min Rain = 0
KLE1 131835Z 10009KT 14/M05 A3034 RMK A01 T01431052  RH  025%=      5-min Rain = 0
KLE1 131836Z 11009KT 14/M06 A3034 RMK A01 T01401056  RH  025%=      5-min Rain = 0
KLE1 131837Z 13007KT 14/M05 A3034 RMK A01 T01381054  RH  026%=      5-min Rain = 0
KLE1 131838Z 13009KT 14/M05 A3034 RMK A01 T01391053  RH  026%=      5-min Rain = 0
KLE1 131839Z 13009KT 14/M05 A3034 RMK A01 T01411053  RH  026%=      5-min Rain = 0
KLE1 131840Z 13007KT 14/M05 A3034 RMK A01 T01391054  RH  026%=      5-min Rain = 0
KLE1 131841Z 10005KT 14/M05 A3034 RMK A01 T01391054  RH  026%=      5-min Rain = 0
KLE1 131842Z 07003KT 14/M06 A3034 RMK A01 T01381055  RH  026%=      5-min Rain = 0
KLE1 131843Z 10005KT 14/M05 A3034 RMK A01 T01381054  RH  026%=      5-min Rain = 0
KLE1 131844Z 10003KT 14/M05 A3034 RMK A01 T01391054  RH  026%=      5-min Rain = 0
KLE1 131845Z 10003KT 14/M05 A3034 RMK A01 T01391054  RH  026%=      5-min Rain = 0
KLE1 131846Z 11006KT 14/M05 A3034 RMK A01 T01381054  RH  026%=      5-min Rain = 0
KLE1 131847Z 10010KT 14/M05 A3034 RMK A01 T01391053  RH  026%=      5-min Rain = 0
KLE1 131848Z 08008KT 14/M05 A3034 RMK A01 T01441049  RH  026%=      5-min Rain = 0
KLE1 131849Z 08010KT 15/M05 A3034 RMK A01 T01471050  RH  025%=      5-min Rain = 0
KLE1 131850Z 08006KT 15/M05 A3034 RMK A01 T01471052  RH  025%=      5-min Rain = 0
KLE1 131851Z 08007KT 15/M05 A3034 RMK A01 T01461052  RH  025%=      5-min Rain = 0
KLE1 131852Z 08006KT 15/M05 A3034 RMK A01 T01471051  RH  025%=      5-min Rain = 0
KLE1 131853Z 06006KT 15/M05 A3034 RMK A01 T01461053  RH  025%=      5-min Rain = 0
KLE1 131854Z 08005KT 14/M05 A3034 RMK A01 T01441053  RH  025%=      5-min Rain = 0
KLE1 131855Z 05006KT 14/M05 A3034 RMK A01 T01431053  RH  025%=      5-min Rain = 0
KLE1 131856Z 06005KT 14/M05 A3034 RMK A01 T01431052  RH  025%=      5-min Rain = 0
KLE1 131857Z 05005KT 14/M05 A3034 RMK A01 T01441053  RH  025%=      5-min Rain = 0
KLE1 131858Z 10003KT 14/M05 A3034 RMK A01 T01431053  RH  025%=      5-min Rain = 0
KLE1 131859Z 15006KT 14/M05 A3034 RMK A01 T01441052  RH  025%=      5-min Rain = 0
KLE1 131900Z 14005KT 14/M05 A3034 RMK A01 T01441053  RH  025%=      5-min Rain = 0
KLE1 131901Z 15005KT 15/M05 A3034 RMK A01 T01451052  RH  025%=      5-min Rain = 0
KLE1 131902Z 12006KT 15/M05 A3034 RMK A01 T01461052  RH  025%=      5-min Rain = 0
KLE1 131903Z 10008KT 15/M05 A3034 RMK A01 T01481051  RH  025%=      5-min Rain = 0
KLE1 131904Z 09009KT 15/M05 A3034 RMK A01 T01471053  RH  025%=      5-min Rain = 0
KLE1 131905Z 11007KT 15/M05 A3034 RMK A01 T01481050  RH  025%=      5-min Rain = 0
KLE1 131906Z 09006KT 15/M05 A3034 RMK A01 T01491052  RH  025%=      5-min Rain = 0
KLE1 131907Z 06006KT 15/M05 A3034 RMK A01 T01491050  RH  025%=      5-min Rain = 0
KLE1 131908Z 08006KT 15/M05 A3034 RMK A01 T01491052  RH  025%=      5-min Rain = 0
KLE1 131909Z 10008KT 15/M05 A3034 RMK A01 T01491051  RH  025%=      5-min Rain = 0
KLE1 131910Z 09007KT 15/M05 A3034 RMK A01 T01471053  RH  025%=      5-min Rain = 0
KLE1 131911Z 09006KT 15/M05 A3034 RMK A01 T01461052  RH  025%=      5-min Rain = 0
KLE1 131912Z 10005KT 15/M05 A3034 RMK A01 T01461054  RH  025%=      5-min Rain = 0
KLE1 131913Z 12004KT 15/M05 A3034 RMK A01 T01451053  RH  025%=      5-min Rain = 0
KLE1 131914Z 12003KT 14/M05 A3034 RMK A01 T01441054  RH  025%=      5-min Rain = 0
KLE1 131915Z 13003KT 14/M05 A3034 RMK A01 T01441054  RH  025%=      5-min Rain = 0
KLE1 131916Z 18002KT 14/M06 A3034 RMK A01 T01431055  RH  025%=      5-min Rain = 0
KLE1 131917Z 15003KT 14/M05 A3034 RMK A01 T01431054  RH  025%=      5-min Rain = 0
KLE1 131918Z 11001KT 14/M05 A3033 RMK A01 T01441054  RH  025%=      5-min Rain = 0
KLE1 131919Z 07005KT 15/M05 A3033 RMK A01 T01471050  RH  025%=      5-min Rain = 0
KLE1 131920Z 09008KT 15/M05 A3033 RMK A01 T01531049  RH  025%=      5-min Rain = 0
KLE1 131921Z 09007KT 15/M05 A3033 RMK A01 T01531052  RH  024%=      5-min Rain = 0
KLE1 131922Z 08009KT 15/M05 A3033 RMK A01 T01531050  RH  024%=      5-min Rain = 0
KLE1 131923Z 08007KT 16/M05 A3033 RMK A01 T01571047  RH  024%=      5-min Rain = 0
KLE1 131924Z 13005KT 16/M05 A3033 RMK A01 T01591049  RH  024%=      5-min Rain = 0
KLE1 131925Z 14003KT 16/M05 A3033 RMK A01 T01571053  RH  023%=      5-min Rain = 0
KLE1 131926Z 09007KT 15/M05 A3033 RMK A01 T01531054  RH  023%=      5-min Rain = 0
KLE1 131927Z 08008KT 15/M05 A3033 RMK A01 T01531051  RH  024%=      5-min Rain = 0
KLE1 131928Z 06008KT 16/M05 A3033 RMK A01 T01551052  RH  024%=      5-min Rain = 0
KLE1 131929Z 06008KT 15/M05 A3032 RMK A01 T01521053  RH  024%=      5-min Rain = 0
KLE1 131930Z 06006KT 15/M05 A3032 RMK A01 T01511054  RH  024%=      5-min Rain = 0
KLE1 131931Z 05006KT 15/M05 A3032 RMK A01 T01521049  RH  025%=      5-min Rain = 0
KLE1 131932Z 09007KT 16/M05 A3032 RMK A01 T01561050  RH  024%=      5-min Rain = 0
KLE1 131933Z 10009KT 16/M05 A3032 RMK A01 T01571051  RH  024%=      5-min Rain = 0
KLE1 131934Z 11006KT 15/M05 A3032 RMK A01 T01541053  RH  024%=      5-min Rain = 0
KLE1 131935Z 08007KT 15/M05 A3032 RMK A01 T01521051  RH  024%=      5-min Rain = 0
KLE1 131936Z 08009KT 15/M05 A3032 RMK A01 T01521051  RH  024%=      5-min Rain = 0
KLE1 131937Z 06006KT 15/M05 A3032 RMK A01 T01521051  RH  024%=      5-min Rain = 0
KLE1 131938Z 06005KT 15/M05 A3032 RMK A01 T01521051  RH  024%=      5-min Rain = 0
KLE1 131939Z 10006KT 15/M05 A3032 RMK A01 T01541049  RH  024%=      5-min Rain = 0
KLE1 131940Z 15006KT 16/M05 A3032 RMK A01 T01571050  RH  024%=      5-min Rain = 0
KLE1 131941Z 15004KT 15/M05 A3032 RMK A01 T01541053  RH  024%=      5-min Rain = 0
KLE1 131942Z 11008KT 15/M05 A3032 RMK A01 T01521051  RH  024%=      5-min Rain = 0
KLE1 131943Z 10010KT 16/M05 A3032 RMK A01 T01551050  RH  024%=      5-min Rain = 0
KLE1 131944Z 10006KT 16/M05 A3032 RMK A01 T01551052  RH  024%=      5-min Rain = 0
KLE1 131945Z 12005KT 15/M05 A3032 RMK A01 T01501053  RH  024%=      5-min Rain = 0
KLE1 131946Z 15005KT 15/M05 A3031 RMK A01 T01521050  RH  024%=      5-min Rain = 0
KLE1 131947Z 16005KT 15/M05 A3031 RMK A01 T01521052  RH  024%=      5-min Rain = 0
KLE1 131948Z 14007KT 15/M05 A3031 RMK A01 T01531051  RH  024%=      5-min Rain = 0
KLE1 131949Z 14006KT 15/M05 A3031 RMK A01 T01541052  RH  024%=      5-min Rain = 0
KLE1 131950Z 13005KT 15/M05 A3031 RMK A01 T01511054  RH  024%=      5-min Rain = 0
KLE1 131951Z 12008KT 15/M05 A3031 RMK A01 T01521050  RH  024%=      5-min Rain = 0
KLE1 131952Z 11009KT 16/M05 A3031 RMK A01 T01571049  RH  024%=      5-min Rain = 0
KLE1 131953Z 12008KT 16/M05 A3031 RMK A01 T01551051  RH  024%=      5-min Rain = 0
KLE1 131954Z 13008KT 16/M05 A3031 RMK A01 T01551051  RH  024%=      5-min Rain = 0
KLE1 131955Z 09005KT 15/M05 A3031 RMK A01 T01541052  RH  024%=      5-min Rain = 0
KLE1 131956Z 09007KT 15/M05 A3031 RMK A01 T01541049  RH  024%=      5-min Rain = 0
KLE1 131957Z 07008KT 16/M05 A3031 RMK A01 T01601046  RH  024%=      5-min Rain = 0
KLE1 131958Z 08012KT 17/M05 A3031 RMK A01 T01651047  RH  023%=      5-min Rain = 0
KLE1 131959Z 08011KT 16/M05 A3031 RMK A01 T01641050  RH  023%=      5-min Rain = 0
KLE1 132000Z 09010KT 16/M05 A3031 RMK A01 T01631050  RH  023%=      5-min Rain = 0
KLE1 132001Z 10007KT 16/M05 A3031 RMK A01 T01591052  RH  023%=      5-min Rain = 0
KLE1 132002Z 10007KT 16/M05 A3031 RMK A01 T01571051  RH  023%=      5-min Rain = 0
KLE1 132003Z 10004KT 16/M05 A3031 RMK A01 T01551052  RH  023%=      5-min Rain = 0
KLE1 132004Z 15001KT 15/M05 A3031 RMK A01 T01541052  RH  024%=      5-min Rain = 0
KLE1 132005Z 13003KT 16/M05 A303 RMK A01 T01551051  RH  024%=      5-min Rain = 0
KLE1 132006Z 05005KT 16/M05 A303 RMK A01 T01581049  RH  024%=      5-min Rain = 0
KLE1 132007Z 09004KT 16/M05 A303 RMK A01 T01601048  RH  023%=      5-min Rain = 0
KLE1 132008Z 10004KT 16/M05 A303 RMK A01 T01621048  RH  023%=      5-min Rain = 0
KLE1 132009Z 07006G11KT 16/M05 A303 RMK A01 T01621051  RH  023%=      5-min Rain = 0
KLE1 132010Z 08010KT 16/M05 A303 RMK A01 T01621049  RH  023%=      5-min Rain = 0
KLE1 132011Z 09008KT 16/M05 A303 RMK A01 T01641049  RH  023%=      5-min Rain = 0
KLE1 132012Z 08008KT 16/M05 A303 RMK A01 T01631050  RH  023%=      5-min Rain = 0
KLE1 132013Z 09006G13KT 17/M05 A303 RMK A01 T01651048  RH  023%=      5-min Rain = 0
KLE1 132014Z 10010KT 17/M05 A303 RMK A01 T01661049  RH  022%=      5-min Rain = 0
KLE1 132015Z 12006KT 17/M05 A303 RMK A01 T01651050  RH  022%=      5-min Rain = 0
KLE1 132016Z 09006KT 16/M05 A303 RMK A01 T01631051  RH  023%=      5-min Rain = 0
KLE1 132017Z 07007KT 16/M05 A303 RMK A01 T01611052  RH  023%=      5-min Rain = 0
KLE1 132018Z 09005KT 16/M05 A303 RMK A01 T01571053  RH  023%=      5-min Rain = 0
KLE1 132019Z 07010KT 16/M05 A303 RMK A01 T01571050  RH  024%=      5-min Rain = 0
KLE1 132020Z 07009KT 16/M05 A303 RMK A01 T01581050  RH  023%=      5-min Rain = 0
KLE1 132021Z 07005KT 16/M05 A303 RMK A01 T01591050  RH  023%=      5-min Rain = 0
KLE1 132022Z 04007KT 16/M05 A303 RMK A01 T01581049  RH  024%=      5-min Rain = 0
KLE1 132023Z 05005KT 16/M05 A303 RMK A01 T01581049  RH  024%=      5-min Rain = 0
KLE1 132024Z 04008KT 16/M05 A3029 RMK A01 T01601046  RH  024%=      5-min Rain = 0
KLE1 132025Z 05008KT 17/M05 A3029 RMK A01 T01651047  RH  023%=      5-min Rain = 0
KLE1 132026Z 05008KT 17/M05 A3029 RMK A01 T01661047  RH  023%=      5-min Rain = 0
KLE1 132027Z 05008KT 17/M05 A3029 RMK A01 T01681046  RH  023%=      5-min Rain = 0
KLE1 132028Z 06010KT 17/M05 A3029 RMK A01 T01691048  RH  022%=      5-min Rain = 0
KLE1 132029Z 07008KT 17/M05 A3029 RMK A01 T01651052  RH  022%=      5-min Rain = 0
KLE1 132030Z 08005KT 16/M05 A3029 RMK A01 T01621052  RH  023%=      5-min Rain = 0
KLE1 132031Z 03006KT 16/M05 A3029 RMK A01 T01611050  RH  023%=      5-min Rain = 0
KLE1 132032Z 02006KT 16/M05 A3029 RMK A01 T01611049  RH  023%=      5-min Rain = 0
KLE1 132033Z 04006KT 16/M05 A3029 RMK A01 T01621050  RH  023%=      5-min Rain = 0
KLE1 132034Z 04005KT 16/M05 A3029 RMK A01 T01621049  RH  023%=      5-min Rain = 0
KLE1 132035Z 07006KT 16/M05 A3029 RMK A01 T01631050  RH  023%=      5-min Rain = 0
KLE1 132036Z 08009KT 16/M05 A3029 RMK A01 T01641049  RH  023%=      5-min Rain = 0
KLE1 132037Z 08007KT 17/M05 A3029 RMK A01 T01671047  RH  023%=      5-min Rain = 0
KLE1 132038Z 06007KT 17/M05 A3029 RMK A01 T01681048  RH  022%=      5-min Rain = 0
KLE1 132039Z 04007KT 17/M05 A3029 RMK A01 T01651051  RH  022%=      5-min Rain = 0
KLE1 132040Z 04004KT 16/M05 A3029 RMK A01 T01601052  RH  023%=      5-min Rain = 0
KLE1 132041Z 07005KT 16/M05 A3029 RMK A01 T01591050  RH  023%=      5-min Rain = 0
KLE1 132042Z 04006KT 16/M05 A3029 RMK A01 T01621047  RH  023%=      5-min Rain = 0
KLE1 132043Z 09008KT 17/M05 A3029 RMK A01 T01671045  RH  023%=      5-min Rain = 0
KLE1 132044Z 09007G12KT 17/M05 A3029 RMK A01 T01691048  RH  022%=      5-min Rain = 0
KLE1 132045Z 08006KT 17/M05 A3029 RMK A01 T01661051  RH  022%=      5-min Rain = 0
KLE1 132046Z 09005KT 16/M05 A3029 RMK A01 T01621053  RH  023%=      5-min Rain = 0
KLE1 132047Z 07006KT 16/M05 A3029 RMK A01 T01601051  RH  023%=      5-min Rain = 0
KLE1 132048Z 11004KT 16/M05 A3029 RMK A01 T01601050  RH  023%=      5-min Rain = 0
KLE1 132049Z 13002KT 16/M05 A3029 RMK A01 T01611051  RH  023%=      5-min Rain = 0
KLE1 132050Z 10004KT 16/M05 A3029 RMK A01 T01601052  RH  023%=      5-min Rain = 0
KLE1 132051Z 08006KT 16/M05 A3029 RMK A01 T01611049  RH  023%=      5-min Rain = 0
KLE1 132052Z 07007KT 16/M05 A3029 RMK A01 T01641049  RH  023%=      5-min Rain = 0
KLE1 132053Z 08009KT 17/M05 A3029 RMK A01 T01651049  RH  023%=      5-min Rain = 0
KLE1 132054Z 08008KT 17/M05 A3029 RMK A01 T01651050  RH  022%=      5-min Rain = 0
KLE1 132055Z 08005KT 16/M05 A3029 RMK A01 T01621051  RH  023%=      5-min Rain = 0
KLE1 132056Z 12009KT 16/M05 A3029 RMK A01 T01621050  RH  023%=      5-min Rain = 0
KLE1 132057Z 11011KT 16/M05 A3029 RMK A01 T01641050  RH  023%=      5-min Rain = 0
KLE1 132058Z 10005KT 16/M05 A3029 RMK A01 T01641051  RH  022%=      5-min Rain = 0
KLE1 132059Z 13005KT 16/M05 A3029 RMK A01 T01641051  RH  023%=      5-min Rain = 0
KLE1 132100Z 13003KT 16/M05 A3029 RMK A01 T01641051  RH  022%=      5-min Rain = 0
KLE1 132101Z 10008KT 16/M05 A3029 RMK A01 T01631052  RH  022%=      5-min Rain = 0
KLE1 132102Z 11008KT 16/M05 A3029 RMK A01 T01641051  RH  022%=      5-min Rain = 0
KLE1 132103Z 12006KT 16/M05 A3029 RMK A01 T01631052  RH  022%=      5-min Rain = 0
KLE1 132104Z 12007KT 16/M05 A3029 RMK A01 T01611051  RH  023%=      5-min Rain = 0
KLE1 132105Z 13004KT 16/M05 A3029 RMK A01 T01611052  RH  023%=      5-min Rain = 0
KLE1 132106Z 12003KT 16/M05 A3029 RMK A01 T01601051  RH  023%=      5-min Rain = 0
KLE1 132107Z 11005KT 16/M05 A3029 RMK A01 T01621051  RH  023%=      5-min Rain = 0
KLE1 132108Z 12005KT 16/M05 A3029 RMK A01 T01631050  RH  023%=      5-min Rain = 0
KLE1 132109Z 11008KT 16/M05 A3029 RMK A01 T01631051  RH  023%=      5-min Rain = 0
KLE1 132110Z 12009KT 16/M05 A3029 RMK A01 T01631052  RH  022%=      5-min Rain = 0
KLE1 132111Z 11009KT 16/M05 A3029 RMK A01 T01641051  RH  022%=      5-min Rain = 0
KLE1 132112Z 12009KT 17/M05 A3029 RMK A01 T01671051  RH  022%=      5-min Rain = 0
KLE1 132113Z 12006KT 17/M05 A3029 RMK A01 T01671052  RH  022%=      5-min Rain = 0
KLE1 132114Z 09009KT 17/M05 A3029 RMK A01 T01701049  RH  022%=      5-min Rain = 0
KLE1 132115Z 10008KT 17/M05 A3029 RMK A01 T01731051  RH  021%=      5-min Rain = 0
KLE1 132116Z 09009KT 17/M05 A3029 RMK A01 T01701054  RH  021%=      5-min Rain = 0
KLE1 132117Z 09007KT 17/M05 A3029 RMK A01 T01691054  RH  021%=      5-min Rain = 0
KLE1 132118Z 09009KT 17/M05 A3029 RMK A01 T01691053  RH  021%=      5-min Rain = 0
KLE1 132119Z 10010KT 17/M05 A3029 RMK A01 T01691054  RH  021%=      5-min Rain = 0
KLE1 132120Z 11008KT 17/M05 A3029 RMK A01 T01681053  RH  022%=      5-min Rain = 0
KLE1 132121Z 12008KT 17/M05 A3029 RMK A01 T01661054  RH  022%=      5-min Rain = 0
KLE1 132122Z 11007KT 17/M05 A3029 RMK A01 T01681053  RH  022%=      5-min Rain = 0
KLE1 132123Z 12005KT 17/M06 A3029 RMK A01 T01651056  RH  021%=      5-min Rain = 0
KLE1 132124Z 12006KT 16/M06 A3029 RMK A01 T01641055  RH  022%=      5-min Rain = 0
KLE1 132125Z 14005KT 17/M06 A3029 RMK A01 T01651055  RH  022%=      5-min Rain = 0
KLE1 132126Z 11004KT 17/M06 A3028 RMK A01 T01651055  RH  022%=      5-min Rain = 0
KLE1 132127Z 13003KT 16/M06 A3028 RMK A01 T01621057  RH  022%=      5-min Rain = 0
KLE1 132128Z 14002KT 16/M06 A3028 RMK A01 T01611057  RH  022%=      5-min Rain = 0
KLE1 132129Z 08002KT 16/M06 A3028 RMK A01 T01621056  RH  022%=      5-min Rain = 0
KLE1 132130Z 06006KT 16/M06 A3028 RMK A01 T01641055  RH  022%=      5-min Rain = 0
KLE1 132131Z 07006G11KT 17/M06 A3028 RMK A01 T01651055  RH  022%=      5-min Rain = 0
KLE1 132132Z 10010KT 17/M05 A3028 RMK A01 T01681054  RH  021%=      5-min Rain = 0
KLE1 132133Z 11012KT 17/M06 A3028 RMK A01 T01691055  RH  021%=      5-min Rain = 0
KLE1 132134Z 12012KT 17/M06 A3028 RMK A01 T01691055  RH  021%=      5-min Rain = 0
KLE1 132135Z 12011KT 17/M06 A3028 RMK A01 T01691055  RH  021%=      5-min Rain = 0
KLE1 132136Z 12009KT 17/M06 A3028 RMK A01 T01671056  RH  021%=      5-min Rain = 0
KLE1 132137Z 11012KT 17/M06 A3028 RMK A01 T01671055  RH  021%=      5-min Rain = 0
KLE1 132138Z 11009KT 17/M06 A3028 RMK A01 T01681057  RH  021%=      5-min Rain = 0
KLE1 132139Z 10007KT 17/M06 A3028 RMK A01 T01661058  RH  021%=      5-min Rain = 0
KLE1 132140Z 10010KT 17/M06 A3028 RMK A01 T01661057  RH  021%=      5-min Rain = 0
KLE1 132141Z 11007KT 17/M06 A3028 RMK A01 T01661058  RH  021%=      5-min Rain = 0
KLE1 132142Z 10005KT 17/M06 A3028 RMK A01 T01661057  RH  021%=      5-min Rain = 0
KLE1 132143Z 11003KT 17/M06 A3028 RMK A01 T01651058  RH  021%=      5-min Rain = 0
KLE1 132144Z 10006KT 17/M06 A3028 RMK A01 T01661056  RH  021%=      5-min Rain = 0
KLE1 132145Z 10008KT 17/M06 A3028 RMK A01 T01671056  RH  021%=      5-min Rain = 0
KLE1 132146Z 10007KT 17/M06 A3028 RMK A01 T01691056  RH  021%=      5-min Rain = 0
KLE1 132147Z 11008KT 17/M06 A3028 RMK A01 T01701056  RH  021%=      5-min Rain = 0
KLE1 132148Z 12009KT 17/M06 A3028 RMK A01 T01701056  RH  021%=      5-min Rain = 0
KLE1 132149Z 11011KT 17/M06 A3028 RMK A01 T01701057  RH  021%=      5-min Rain = 0
KLE1 132150Z 12010KT 17/M06 A3028 RMK A01 T01711057  RH  021%=      5-min Rain = 0
KLE1 132151Z 13008KT 17/M06 A3028 RMK A01 T01701058  RH  021%=      5-min Rain = 0
KLE1 132152Z 13008KT 17/M06 A3028 RMK A01 T01691058  RH  021%=      5-min Rain = 0
KLE1 132153Z 12007KT 17/M06 A3028 RMK A01 T01701057  RH  021%=      5-min Rain = 0
KLE1 132154Z 11006KT 17/M06 A3028 RMK A01 T01691058  RH  021%=      5-min Rain = 0
KLE1 132155Z 11004KT 17/M06 A3028 RMK A01 T01681059  RH  021%=      5-min Rain = 0
KLE1 132156Z 11006KT 17/M06 A3028 RMK A01 T01671058  RH  021%=      5-min Rain = 0
KLE1 132157Z 10005KT 17/M06 A3028 RMK A01 T01681056  RH  021%=      5-min Rain = 0
KLE1 132158Z 07006KT 17/M06 A3027 RMK A01 T01711055  RH  021%=      5-min Rain = 0
KLE1 132159Z 09008KT 17/M06 A3027 RMK A01 T01741055  RH  021%=      5-min Rain = 0
KLE1 132200Z 11009KT 18/M06 A3027 RMK A01 T01751055  RH  020%=      5-min Rain = 0
KLE1 132201Z 11009KT 17/M06 A3027 RMK A01 T01741056  RH  020%=      5-min Rain = 0
KLE1 132202Z 12009KT 17/M06 A3027 RMK A01 T01721058  RH  020%=      5-min Rain = 0
KLE1 132203Z 12008KT 17/M06 A3027 RMK A01 T01701058  RH  020%=      5-min Rain = 0
KLE1 132204Z 14011KT 17/M06 A3027 RMK A01 T01691057  RH  021%=      5-min Rain = 0
KLE1 132205Z 14009KT 17/M06 A3027 RMK A01 T01701058  RH  020%=      5-min Rain = 0
KLE1 132206Z 14010KT 17/M06 A3027 RMK A01 T01711057  RH  021%=      5-min Rain = 0
KLE1 132207Z 12010KT 17/M06 A3027 RMK A01 T01711057  RH  021%=      5-min Rain = 0
KLE1 132208Z 12009KT 17/M06 A3027 RMK A01 T01701059  RH  020%=      5-min Rain = 0
KLE1 132209Z 13009KT 17/M06 A3027 RMK A01 T01701058  RH  021%=      5-min Rain = 0
KLE1 132210Z 13008KT 17/M06 A3027 RMK A01 T01731055  RH  021%=      5-min Rain = 0
KLE1 132211Z 13007KT 17/M06 A3027 RMK A01 T01731059  RH  020%=      5-min Rain = 0
KLE1 132212Z 12009KT 17/M06 A3027 RMK A01 T01691061  RH  020%=      5-min Rain = 0
KLE1 132213Z 09009KT 17/M06 A3027 RMK A01 T01681057  RH  021%=      5-min Rain = 0
KLE1 132214Z 09009KT 17/M06 A3027 RMK A01 T01681057  RH  021%=      5-min Rain = 0
KLE1 132215Z 12012KT 17/M06 A3027 RMK A01 T01671058  RH  021%=      5-min Rain = 0
KLE1 132216Z 12011KT 17/M06 A3027 RMK A01 T01671057  RH  021%=      5-min Rain = 0
KLE1 132217Z 11010KT 17/M06 A3027 RMK A01 T01691056  RH  021%=      5-min Rain = 0
KLE1 132218Z 11009KT 17/M06 A3027 RMK A01 T01681058  RH  021%=      5-min Rain = 0
KLE1 132219Z 10007KT 17/M06 A3027 RMK A01 T01671057  RH  021%=      5-min Rain = 0
KLE1 132220Z 09008KT 17/M06 A3027 RMK A01 T01681056  RH  021%=      5-min Rain = 0
KLE1 132221Z 09007KT 17/M06 A3027 RMK A01 T01691058  RH  021%=      5-min Rain = 0
KLE1 132222Z 10005KT 17/M06 A3027 RMK A01 T01671059  RH  021%=      5-min Rain = 0
KLE1 132223Z 10006KT 17/M06 A3027 RMK A01 T01661058  RH  021%=      5-min Rain = 0
KLE1 132224Z 13004KT 17/M06 A3027 RMK A01 T01661058  RH  021%=      5-min Rain = 0
KLE1 132225Z 10006KT 17/M06 A3027 RMK A01 T01661057  RH  021%=      5-min Rain = 0
KLE1 132226Z 09006KT 17/M06 A3027 RMK A01 T01671057  RH  021%=      5-min Rain = 0
KLE1 132227Z 09005KT 17/M06 A3027 RMK A01 T01661058  RH  021%=      5-min Rain = 0
KLE1 132228Z 09009KT 17/M06 A3027 RMK A01 T01661057  RH  021%=      5-min Rain = 0
KLE1 132229Z 08006KT 17/M06 A3027 RMK A01 T01681056  RH  021%=      5-min Rain = 0
KLE1 132230Z 11007KT 17/M06 A3027 RMK A01 T01681057  RH  021%=      5-min Rain = 0
KLE1 132231Z 10005KT 17/M06 A3027 RMK A01 T01691057  RH  021%=      5-min Rain = 0
KLE1 132232Z 09007KT 17/M06 A3027 RMK A01 T01681058  RH  021%=      5-min Rain = 0
KLE1 132233Z 09010KT 17/M06 A3027 RMK A01 T01681057  RH  021%=      5-min Rain = 0
KLE1 132234Z 10009KT 17/M06 A3027 RMK A01 T01691056  RH  021%=      5-min Rain = 0
KLE1 132235Z 10009KT 17/M06 A3027 RMK A01 T01701058  RH  021%=      5-min Rain = 0
KLE1 132236Z 10009KT 17/M06 A3027 RMK A01 T01701057  RH  021%=      5-min Rain = 0
KLE1 132237Z 09007KT 17/M06 A3027 RMK A01 T01681058  RH  021%=      5-min Rain = 0
KLE1 132238Z 08008KT 17/M06 A3027 RMK A01 T01671057  RH  021%=      5-min Rain = 0
KLE1 132239Z 07007KT 17/M06 A3027 RMK A01 T01661058  RH  021%=      5-min Rain = 0
KLE1 132240Z 05005KT 17/M06 A3027 RMK A01 T01661058  RH  021%=      5-min Rain = 0
KLE1 132241Z 05004KT 17/M06 A3027 RMK A01 T01671057  RH  021%=      5-min Rain = 0
KLE1 132242Z 09005KT 17/M06 A3027 RMK A01 T01691055  RH  021%=      5-min Rain = 0
KLE1 132243Z 11009KT 17/M05 A3027 RMK A01 T01721054  RH  021%=      5-min Rain = 0
KLE1 132244Z 11010KT 17/M06 A3027 RMK A01 T01721056  RH  021%=      5-min Rain = 0
KLE1 132245Z 09009KT 17/M06 A3027 RMK A01 T01711056  RH  021%=      5-min Rain = 0
KLE1 132246Z 10008KT 17/M06 A3027 RMK A01 T01711056  RH  021%=      5-min Rain = 0
KLE1 132247Z 10009KT 17/M06 A3027 RMK A01 T01711055  RH  021%=      5-min Rain = 0
KLE1 132248Z 09009KT 17/M06 A3027 RMK A01 T01721056  RH  021%=      5-min Rain = 0
KLE1 132249Z 09007KT 17/M06 A3027 RMK A01 T01711057  RH  021%=      5-min Rain = 0
KLE1 132250Z 10008KT 17/M06 A3027 RMK A01 T01691058  RH  021%=      5-min Rain = 0
KLE1 132251Z 10007KT 17/M06 A3027 RMK A01 T01681059  RH  021%=      5-min Rain = 0
KLE1 132252Z 10005KT 17/M06 A3027 RMK A01 T01671058  RH  021%=      5-min Rain = 0
KLE1 132253Z 12005KT 17/M06 A3027 RMK A01 T01671058  RH  021%=      5-min Rain = 0
KLE1 132254Z 12006G11KT 17/M06 A3027 RMK A01 T01671057  RH  021%=      5-min Rain = 0
KLE1 132255Z 12007KT 17/M06 A3027 RMK A01 T01681056  RH  021%=      5-min Rain = 0
KLE1 132256Z 11005KT 17/M06 A3027 RMK A01 T01681057  RH  021%=      5-min Rain = 0
KLE1 132257Z 13005KT 17/M06 A3027 RMK A01 T01671057  RH  021%=      5-min Rain = 0
KLE1 132258Z 12004KT 17/M06 A3027 RMK A01 T01671057  RH  021%=      5-min Rain = 0
KLE1 132259Z 11005KT 17/M06 A3027 RMK A01 T01671057  RH  021%=      5-min Rain = 0
KLE1 132300Z 08006KT 17/M06 A3027 RMK A01 T01661058  RH  021%=      5-min Rain = 0
KLE1 132301Z 09009KT 17/M06 A3027 RMK A01 T01661057  RH  021%=      5-min Rain = 0
KLE1 132302Z 10008KT 17/M06 A3027 RMK A01 T01661057  RH  021%=      5-min Rain = 0
KLE1 132303Z 10009KT 17/M06 A3027 RMK A01 T01681055  RH  021%=      5-min Rain = 0
KLE1 132304Z 10009KT 17/M06 A3026 RMK A01 T01671057  RH  021%=      5-min Rain = 0
KLE1 132305Z 10013KT 17/M06 A3026 RMK A01 T01661057  RH  021%=      5-min Rain = 0
KLE1 132306Z 09011KT 17/M06 A3026 RMK A01 T01661057  RH  021%=      5-min Rain = 0
KLE1 132307Z 09007KT 17/M06 A3026 RMK A01 T01661057  RH  021%=      5-min Rain = 0
KLE1 132308Z 09006KT 17/M06 A3026 RMK A01 T01651058  RH  021%=      5-min Rain = 0
KLE1 132309Z 07007KT 16/M06 A3026 RMK A01 T01641058  RH  021%=      5-min Rain = 0
KLE1 132310Z 09008KT 16/M06 A3026 RMK A01 T01641056  RH  022%=      5-min Rain = 0
KLE1 132311Z 08009KT 17/M06 A3026 RMK A01 T01661056  RH  021%=      5-min Rain = 0
KLE1 132312Z 07008KT 17/M06 A3026 RMK A01 T01661057  RH  021%=      5-min Rain = 0
KLE1 132313Z 08007KT 17/M06 A3026 RMK A01 T01651058  RH  021%=      5-min Rain = 0
KLE1 132314Z 10006KT 16/M06 A3026 RMK A01 T01641058  RH  021%=      5-min Rain = 0
KLE1 132315Z 11007KT 17/M06 A3026 RMK A01 T01651057  RH  021%=      5-min Rain = 0
KLE1 132316Z 11007KT 16/M06 A3026 RMK A01 T01641058  RH  021%=      5-min Rain = 0
KLE1 132317Z 11011KT 16/M06 A3026 RMK A01 T01641058  RH  021%=      5-min Rain = 0
KLE1 132318Z 10010KT 16/M06 A3026 RMK A01 T01641058  RH  021%=      5-min Rain = 0
KLE1 132319Z 11009KT 16/M06 A3026 RMK A01 T01631059  RH  021%=      5-min Rain = 0
KLE1 132320Z 12009KT 16/M06 A3026 RMK A01 T01621058  RH  022%=      5-min Rain = 0
KLE1 132321Z 13008KT 16/M06 A3026 RMK A01 T01621058  RH  022%=      5-min Rain = 0
KLE1 132322Z 14007KT 16/M06 A3026 RMK A01 T01621058  RH  022%=      5-min Rain = 0
KLE1 132323Z 12006KT 16/M06 A3026 RMK A01 T01621058  RH  022%=      5-min Rain = 0
KLE1 132324Z 10006KT 16/M06 A3026 RMK A01 T01631057  RH  022%=      5-min Rain = 0
KLE1 132325Z 10006KT 16/M06 A3026 RMK A01 T01641056  RH  022%=      5-min Rain = 0
KLE1 132326Z 09007KT 16/M06 A3026 RMK A01 T01641056  RH  021%=      5-min Rain = 0
KLE1 132327Z 08009KT 17/M06 A3026 RMK A01 T01661056  RH  021%=      5-min Rain = 0
KLE1 132328Z 08008KT 17/M06 A3026 RMK A01 T01651057  RH  021%=      5-min Rain = 0
KLE1 132329Z 11009KT 16/M06 A3026 RMK A01 T01631058  RH  021%=      5-min Rain = 0
KLE1 132330Z 11009KT 16/M06 A3026 RMK A01 T01631057  RH  022%=      5-min Rain = 0
KLE1 132331Z 11008KT 16/M06 A3026 RMK A01 T01621058  RH  022%=      5-min Rain = 0
KLE1 132332Z 11006KT 16/M06 A3026 RMK A01 T01611058  RH  022%=      5-min Rain = 0
KLE1 132333Z 10005KT 16/M06 A3026 RMK A01 T01611058  RH  022%=      5-min Rain = 0
KLE1 132334Z 10006KT 16/M06 A3026 RMK A01 T01611058  RH  022%=      5-min Rain = 0
KLE1 132335Z 11006KT 16/M06 A3026 RMK A01 T01601059  RH  022%=      5-min Rain = 0
KLE1 132336Z 13007KT 16/M06 A3026 RMK A01 T01601058  RH  022%=      5-min Rain = 0
KLE1 132337Z 13008KT 16/M06 A3026 RMK A01 T01611057  RH  022%=      5-min Rain = 0
KLE1 132338Z 12008KT 16/M06 A3026 RMK A01 T01611058  RH  022%=      5-min Rain = 0
KLE1 132339Z 12008KT 16/M06 A3026 RMK A01 T01611057  RH  022%=      5-min Rain = 0
KLE1 132340Z 11009KT 16/M06 A3026 RMK A01 T01611057  RH  022%=      5-min Rain = 0
KLE1 132341Z 11008KT 16/M06 A3026 RMK A01 T01611058  RH  022%=      5-min Rain = 0
KLE1 132342Z 12007KT 16/M06 A3026 RMK A01 T01611057  RH  022%=      5-min Rain = 0
KLE1 132343Z 10010KT 16/M06 A3026 RMK A01 T01611057  RH  022%=      5-min Rain = 0
KLE1 132344Z 10011KT 16/M06 A3026 RMK A01 T01601058  RH  022%=      5-min Rain = 0
KLE1 132345Z 11010KT 16/M06 A3026 RMK A01 T01591058  RH  022%=      5-min Rain = 0
KLE1 132346Z 11009KT 16/M06 A3026 RMK A01 T01581059  RH  022%=      5-min Rain = 0
KLE1 132347Z 11007KT 16/M06 A3026 RMK A01 T01581058  RH  022%=      5-min Rain = 0
KLE1 132348Z 10007KT 16/M06 A3026 RMK A01 T01581058  RH  022%=      5-min Rain = 0
KLE1 132349Z 11008KT 16/M06 A3026 RMK A01 T01581057  RH  022%=      5-min Rain = 0
KLE1 132350Z 11008KT 16/M06 A3026 RMK A01 T01581057  RH  022%=      5-min Rain = 0
KLE1 132351Z 11009KT 16/M06 A3026 RMK A01 T01581058  RH  022%=      5-min Rain = 0
KLE1 132352Z 11009KT 16/M06 A3026 RMK A01 T01581058  RH  022%=      5-min Rain = 0
KLE1 132353Z 11010KT 16/M06 A3026 RMK A01 T01571058  RH  022%=      5-min Rain = 0
KLE1 132354Z 12008KT 16/M06 A3027 RMK A01 T01571059  RH  022%=      5-min Rain = 0
KLE1 132355Z 10007KT 16/M06 A3027 RMK A01 T01561059  RH  022%=      5-min Rain = 0
KLE1 132356Z 08006KT 16/M06 A3027 RMK A01 T01551059  RH  022%=      5-min Rain = 0
KLE1 132357Z 11007KT 16/M06 A3027 RMK A01 T01551061  RH  022%=      5-min Rain = 0
KLE1 132358Z 09012KT 16/M06 A3027 RMK A01 T01551059  RH  022%=      5-min Rain = 0
KLE1 132359Z 08014KT 15/M06 A3027 RMK A01 T01541062  RH  022%=      5-min Rain = 0
KLE1 140000Z 08016KT 15/M07 A3026 RMK A01 T01511065  RH  022%=      5-min Rain = 0
KLE1 140001Z 09015KT 15/M07 A3026 RMK A01 T01491065  RH  022%=      5-min Rain = 0
KLE1 140002Z 08016KT 15/M07 A3026 RMK A01 T01481065  RH  022%=      5-min Rain = 0
KLE1 140003Z 07016KT 15/M07 A3027 RMK A01 T01471065  RH  023%=      5-min Rain = 0
KLE1 140004Z 08017KT 15/M07 A3027 RMK A01 T01471065  RH  023%=      5-min Rain = 0
KLE1 140005Z 08016KT 15/M07 A3027 RMK A01 T01461065  RH  023%=      5-min Rain = 0
KLE1 140006Z 08017KT 15/M07 A3027 RMK A01 T01461065  RH  023%=      5-min Rain = 0
KLE1 140007Z 08017KT 15/M07 A3027 RMK A01 T01451066  RH  023%=      5-min Rain = 0
KLE1 140008Z 08016KT 15/M07 A3027 RMK A01 T01451066  RH  023%=      5-min Rain = 0
KLE1 140009Z 09017KT 14/M07 A3027 RMK A01 T01441066  RH  023%=      5-min Rain = 0
KLE1 140010Z 09015KT 14/M07 A3027 RMK A01 T01441065  RH  023%=      5-min Rain = 0
KLE1 140011Z 08014KT 14/M07 A3027 RMK A01 T01441065  RH  023%=      5-min Rain = 0
KLE1 140012Z 08015KT 14/M07 A3027 RMK A01 T01431065  RH  023%=      5-min Rain = 0
KLE1 140013Z 08015KT 14/M07 A3027 RMK A01 T01431065  RH  023%=      5-min Rain = 0
KLE1 140014Z 09014KT 14/M07 A3027 RMK A01 T01431065  RH  023%=      5-min Rain = 0
KLE1 140015Z 09012KT 14/M07 A3027 RMK A01 T01431065  RH  023%=      5-min Rain = 0
KLE1 140016Z 09014KT 14/M07 A3027 RMK A01 T01421065  RH  023%=      5-min Rain = 0
KLE1 140017Z 09014KT 14/M07 A3027 RMK A01 T01421065  RH  023%=      5-min Rain = 0
KLE1 140018Z 09013KT 14/M07 A3027 RMK A01 T01411065  RH  023%=      5-min Rain = 0
KLE1 140019Z 09013KT 14/M07 A3027 RMK A01 T01411065  RH  023%=      5-min Rain = 0
KLE1 140020Z 09014KT 14/M07 A3027 RMK A01 T01411065  RH  023%=      5-min Rain = 0
KLE1 140021Z 09017KT 14/M07 A3027 RMK A01 T01401066  RH  023%=      5-min Rain = 0
KLE1 140022Z 08018KT 14/M07 A3027 RMK A01 T01391067  RH  023%=      5-min Rain = 0
KLE1 140023Z 08019KT 14/M07 A3027 RMK A01 T01381068  RH  023%=      5-min Rain = 0
KLE1 140024Z 08015KT 14/M07 A3027 RMK A01 T01371068  RH  024%=      5-min Rain = 0
KLE1 140025Z 08013KT 14/M07 A3027 RMK A01 T01361067  RH  024%=      5-min Rain = 0
KLE1 140026Z 08017KT 14/M07 A3027 RMK A01 T01351067  RH  024%=      5-min Rain = 0
KLE1 140027Z 08015KT 13/M07 A3027 RMK A01 T01341067  RH  024%=      5-min Rain = 0
KLE1 140028Z 08016KT 13/M07 A3027 RMK A01 T01341067  RH  024%=      5-min Rain = 0
KLE1 140029Z 08016KT 13/M07 A3027 RMK A01 T01331067  RH  024%=      5-min Rain = 0
KLE1 140030Z 08017KT 13/M07 A3027 RMK A01 T01331067  RH  024%=      5-min Rain = 0
KLE1 140031Z 08016KT 13/M07 A3027 RMK A01 T01321067  RH  024%=      5-min Rain = 0
KLE1 140032Z 08014KT 13/M07 A3027 RMK A01 T01311068  RH  024%=      5-min Rain = 0
KLE1 140033Z 07013KT 13/M07 A3027 RMK A01 T01301068  RH  025%=      5-min Rain = 0
KLE1 140034Z 08014KT 13/M07 A3027 RMK A01 T01301068  RH  025%=      5-min Rain = 0
KLE1 140035Z 08013KT 13/M07 A3027 RMK A01 T01291068  RH  025%=      5-min Rain = 0
KLE1 140036Z 08013KT 13/M07 A3028 RMK A01 T01281069  RH  025%=      5-min Rain = 0
KLE1 140037Z 08014KT 13/M07 A3027 RMK A01 T01271068  RH  025%=      5-min Rain = 0
KLE1 140038Z 08013KT 13/M07 A3027 RMK A01 T01271068  RH  025%=      5-min Rain = 0
KLE1 140039Z 08012KT 13/M07 A3027 RMK A01 T01271068  RH  025%=      5-min Rain = 0
KLE1 140040Z 08013KT 13/M07 A3027 RMK A01 T01261069  RH  025%=      5-min Rain = 0
KLE1 140041Z 08012KT 13/M07 A3027 RMK A01 T01251069  RH  025%=      5-min Rain = 0
KLE1 140042Z 08013KT 13/M07 A3027 RMK A01 T01251069  RH  025%=      5-min Rain = 0
KLE1 140043Z 08013KT 12/M07 A3027 RMK A01 T01241069  RH  025%=      5-min Rain = 0
KLE1 140044Z 08013KT 13/M07 A3027 RMK A01 T01251068  RH  025%=      5-min Rain = 0
KLE1 140045Z 08012KT 12/M07 A3028 RMK A01 T01241068  RH  026%=      5-min Rain = 0
KLE1 140046Z 08012KT 12/M07 A3028 RMK A01 T01231068  RH  026%=      5-min Rain = 0
KLE1 140047Z 07012KT 12/M07 A3028 RMK A01 T01231068  RH  026%=      5-min Rain = 0
KLE1 140048Z 07011KT 12/M07 A3028 RMK A01 T01221068  RH  026%=      5-min Rain = 0
KLE1 140049Z 08011KT 12/M07 A3028 RMK A01 T01211069  RH  026%=      5-min Rain = 0
KLE1 140050Z 07011KT 12/M07 A3028 RMK A01 T01201069  RH  026%=      5-min Rain = 0
KLE1 140051Z 08011KT 12/M07 A3028 RMK A01 T01191069  RH  026%=      5-min Rain = 0
KLE1 140052Z 08011KT 12/M07 A3028 RMK A01 T01181068  RH  026%=      5-min Rain = 0
KLE1 140053Z 08011KT 12/M07 A3028 RMK A01 T01181069  RH  027%=      5-min Rain = 0
KLE1 140054Z 07011KT 12/M07 A3028 RMK A01 T01171069  RH  027%=      5-min Rain = 0
KLE1 140055Z 08011KT 12/M07 A3028 RMK A01 T01171068  RH  027%=      5-min Rain = 0
KLE1 140056Z 08010KT 12/M07 A3028 RMK A01 T01161068  RH  027%=      5-min Rain = 0
KLE1 140057Z 07010KT 12/M07 A3028 RMK A01 T01161068  RH  027%=      5-min Rain = 0
KLE1 140058Z 08010KT 12/M07 A3028 RMK A01 T01161068  RH  027%=      5-min Rain = 0
KLE1 140059Z 08011KT 12/M07 A3028 RMK A01 T01151068  RH  027%=      5-min Rain = 0
KLE1 140100Z 08011KT 12/M07 A3028 RMK A01 T01151068  RH  027%=      5-min Rain = 0
KLE1 140101Z 08011KT 11/M07 A3028 RMK A01 T01141068  RH  027%=      5-min Rain = 0
KLE1 140102Z 08010KT 11/M07 A3028 RMK A01 T01131068  RH  027%=      5-min Rain = 0
KLE1 140103Z 08011KT 11/M07 A3028 RMK A01 T01131068  RH  028%=      5-min Rain = 0
KLE1 140104Z 08011KT 11/M07 A3028 RMK A01 T01121068  RH  028%=      5-min Rain = 0
KLE1 140105Z 08011KT 11/M07 A3028 RMK A01 T01121067  RH  028%=      5-min Rain = 0
KLE1 140106Z 07010KT 11/M07 A3028 RMK A01 T01111068  RH  028%=      5-min Rain = 0
KLE1 140107Z 08011KT 11/M07 A3028 RMK A01 T01111068  RH  028%=      5-min Rain = 0
KLE1 140108Z 08010KT 11/M07 A3028 RMK A01 T01101068  RH  028%=      5-min Rain = 0
KLE1 140109Z 08011KT 11/M07 A3028 RMK A01 T01101068  RH  028%=      5-min Rain = 0
KLE1 140110Z 08011KT 11/M07 A3028 RMK A01 T01101067  RH  028%=      5-min Rain = 0
KLE1 140111Z 08010KT 11/M07 A3028 RMK A01 T01101067  RH  028%=      5-min Rain = 0
KLE1 140112Z 08011KT 11/M07 A3028 RMK A01 T01091068  RH  028%=      5-min Rain = 0
KLE1 140113Z 08011KT 11/M07 A3028 RMK A01 T01081068  RH  028%=      5-min Rain = 0
KLE1 140114Z 08011KT 11/M07 A3028 RMK A01 T01081068  RH  028%=      5-min Rain = 0
KLE1 140115Z 08011KT 11/M07 A3028 RMK A01 T01081067  RH  028%=      5-min Rain = 0
KLE1 140116Z 08010KT 11/M07 A3028 RMK A01 T01081068  RH  029%=      5-min Rain = 0
KLE1 140117Z 08011KT 11/M07 A3028 RMK A01 T01071068  RH  029%=      5-min Rain = 0
KLE1 140118Z 08010KT 11/M07 A3028 RMK A01 T01071067  RH  029%=      5-min Rain = 0
KLE1 140119Z 08010KT 11/M07 A3028 RMK A01 T01071067  RH  029%=      5-min Rain = 0
KLE1 140120Z 08011KT 11/M07 A3028 RMK A01 T01061068  RH  029%=      5-min Rain = 0
KLE1 140121Z 08010KT 11/M07 A3028 RMK A01 T01061067  RH  029%=      5-min Rain = 0
KLE1 140122Z 07011KT 11/M07 A3028 RMK A01 T01051067  RH  029%=      5-min Rain = 0
KLE1 140123Z 07010KT 11/M07 A3028 RMK A01 T01051067  RH  029%=      5-min Rain = 0
KLE1 140124Z 07011KT 11/M07 A3028 RMK A01 T01051067  RH  029%=      5-min Rain = 0
KLE1 140125Z 08011KT 11/M07 A3028 RMK A01 T01051067  RH  029%=      5-min Rain = 0
KLE1 140126Z 08011KT 11/M07 A3028 RMK A01 T01051066  RH  029%=      5-min Rain = 0
KLE1 140127Z 07011KT 10/M07 A3028 RMK A01 T01041066  RH  030%=      5-min Rain = 0
KLE1 140128Z 08011KT 10/M07 A3028 RMK A01 T01041066  RH  030%=      5-min Rain = 0
KLE1 140129Z 08011KT 10/M07 A3028 RMK A01 T01041066  RH  030%=      5-min Rain = 0
KLE1 140130Z 07010KT 10/M07 A3028 RMK A01 T01031067  RH  030%=      5-min Rain = 0
KLE1 140131Z 08011KT 10/M07 A3028 RMK A01 T01031067  RH  030%=      5-min Rain = 0
KLE1 140132Z 08010KT 10/M07 A3028 RMK A01 T01031067  RH  030%=      5-min Rain = 0
KLE1 140133Z 08011KT 10/M07 A3028 RMK A01 T01021066  RH  030%=      5-min Rain = 0
KLE1 140134Z 08010KT 10/M07 A3029 RMK A01 T01021066  RH  030%=      5-min Rain = 0
KLE1 140135Z 08010KT 10/M07 A3028 RMK A01 T01011067  RH  030%=      5-min Rain = 0
KLE1 140136Z 08011KT 10/M07 A3028 RMK A01 T01001067  RH  030%=      5-min Rain = 0
KLE1 140137Z 08010KT 10/M07 A3028 RMK A01 T01001067  RH  030%=      5-min Rain = 0
KLE1 140138Z 08010KT 10/M07 A3028 RMK A01 T00991067  RH  030%=      5-min Rain = 0
KLE1 140139Z 07011KT 10/M07 A3029 RMK A01 T01001066  RH  030%=      5-min Rain = 0
KLE1 140140Z 07011KT 10/M07 A3029 RMK A01 T01001066  RH  030%=      5-min Rain = 0
KLE1 140141Z 07010KT 10/M07 A3029 RMK A01 T01001065  RH  030%=      5-min Rain = 0
KLE1 140142Z 07010KT 10/M07 A3029 RMK A01 T01001065  RH  030%=      5-min Rain = 0
KLE1 140143Z 08011KT 10/M07 A3029 RMK A01 T01011065  RH  030%=      5-min Rain = 0
KLE1 140144Z 07011KT 10/M07 A3029 RMK A01 T01011065  RH  031%=      5-min Rain = 0
KLE1 140145Z 08011KT 10/M06 A3029 RMK A01 T01011064  RH  031%=      5-min Rain = 0
KLE1 140146Z 08010KT 10/M06 A3029 RMK A01 T01011064  RH  031%=      5-min Rain = 0
KLE1 140147Z 08010KT 10/M06 A3029 RMK A01 T01011064  RH  031%=      5-min Rain = 0
KLE1 140148Z 08010KT 10/M06 A3029 RMK A01 T01001064  RH  031%=      5-min Rain = 0
KLE1 140149Z 08010KT 10/M06 A3029 RMK A01 T01001064  RH  031%=      5-min Rain = 0
KLE1 140150Z 08010KT 10/M06 A3029 RMK A01 T00991064  RH  031%=      5-min Rain = 0
KLE1 140151Z 08010KT 10/M06 A3029 RMK A01 T00991064  RH  031%=      5-min Rain = 0
KLE1 140152Z 08010KT 10/M06 A3029 RMK A01 T00991064  RH  031%=      5-min Rain = 0
KLE1 140153Z 08010KT 10/M06 A3029 RMK A01 T00991064  RH  031%=      5-min Rain = 0
KLE1 140154Z 08010KT 10/M06 A3029 RMK A01 T00991064  RH  031%=      5-min Rain = 0
KLE1 140155Z 08010KT 10/M06 A3029 RMK A01 T01001064  RH  031%=      5-min Rain = 0
KLE1 140156Z 08010KT 10/M06 A3029 RMK A01 T01001064  RH  031%=      5-min Rain = 0
KLE1 140157Z 08010KT 10/M06 A3029 RMK A01 T00991064  RH  031%=      5-min Rain = 0
KLE1 140158Z 09010KT 10/M06 A3029 RMK A01 T01001064  RH  031%=      5-min Rain = 0
KLE1 140159Z 09010KT 10/M06 A3029 RMK A01 T00991064  RH  031%=      5-min Rain = 0
KLE1 140200Z 09010KT 10/M06 A3029 RMK A01 T00991064  RH  031%=      5-min Rain = 0
KLE1 140201Z 09011KT 10/M06 A303 RMK A01 T00991064  RH  031%=      5-min Rain = 0
KLE1 140202Z 09011KT 10/M06 A303 RMK A01 T00991063  RH  031%=      5-min Rain = 0
KLE1 140203Z 09010KT 10/M06 A303 RMK A01 T00991063  RH  031%=      5-min Rain = 0
KLE1 140204Z 09010KT 10/M06 A303 RMK A01 T00991063  RH  031%=      5-min Rain = 0
KLE1 140205Z 09010KT 10/M06 A303 RMK A01 T00991064  RH  031%=      5-min Rain = 0
KLE1 140206Z 09010KT 10/M06 A303 RMK A01 T00991064  RH  031%=      5-min Rain = 0
KLE1 140207Z 09010KT 10/M06 A303 RMK A01 T00981064  RH  031%=      5-min Rain = 0
KLE1 140208Z 09010KT 10/M06 A303 RMK A01 T00981064  RH  031%=      5-min Rain = 0
KLE1 140209Z 09010KT 10/M06 A303 RMK A01 T00981064  RH  031%=      5-min Rain = 0
KLE1 140210Z 09010KT 10/M06 A303 RMK A01 T00981064  RH  031%=      5-min Rain = 0
KLE1 140211Z 09010KT 10/M07 A303 RMK A01 T00971065  RH  031%=      5-min Rain = 0
KLE1 140212Z 09010KT 10/M07 A303 RMK A01 T00971065  RH  031%=      5-min Rain = 0
KLE1 140213Z 09010KT 10/M06 A303 RMK A01 T00971064  RH  031%=      5-min Rain = 0
KLE1 140214Z 09009KT 10/M06 A303 RMK A01 T00981064  RH  031%=      5-min Rain = 0
KLE1 140215Z 09010KT 10/M06 A303 RMK A01 T00971064  RH  031%=      5-min Rain = 0
KLE1 140216Z 09010KT 10/M06 A303 RMK A01 T00971064  RH  031%=      5-min Rain = 0
KLE1 140217Z 09010KT 10/M06 A303 RMK A01 T00971064  RH  031%=      5-min Rain = 0
KLE1 140218Z 09009KT 10/M06 A303 RMK A01 T00971064  RH  031%=      5-min Rain = 0
KLE1 140219Z 09009KT 10/M06 A303 RMK A01 T00971064  RH  032%=      5-min Rain = 0
KLE1 140220Z 09009KT 10/M06 A303 RMK A01 T00971064  RH  032%=      5-min Rain = 0
KLE1 140221Z 09010KT 10/M06 A303 RMK A01 T00971063  RH  032%=      5-min Rain = 0
KLE1 140222Z 09010KT 10/M06 A303 RMK A01 T00971063  RH  032%=      5-min Rain = 0
KLE1 140223Z 09010KT 10/M06 A303 RMK A01 T00981063  RH  032%=      5-min Rain = 0
KLE1 140224Z 09010KT 10/M06 A303 RMK A01 T00971063  RH  032%=      5-min Rain = 0
KLE1 140225Z 09009KT 10/M06 A303 RMK A01 T00971063  RH  032%=      5-min Rain = 0
KLE1 140226Z 09009KT 10/M06 A303 RMK A01 T00961063  RH  032%=      5-min Rain = 0
KLE1 140227Z 09010KT 10/M06 A303 RMK A01 T00961063  RH  032%=      5-min Rain = 0
KLE1 140228Z 09010KT 10/M06 A303 RMK A01 T00961063  RH  032%=      5-min Rain = 0
KLE1 140229Z 09010KT 10/M06 A303 RMK A01 T00961063  RH  032%=      5-min Rain = 0
KLE1 140230Z 09010KT 10/M06 A303 RMK A01 T00961063  RH  032%=      5-min Rain = 0
KLE1 140231Z 09011KT 10/M06 A303 RMK A01 T00961063  RH  032%=      5-min Rain = 0
KLE1 140232Z 09010KT 10/M06 A303 RMK A01 T00971062  RH  032%=      5-min Rain = 0
KLE1 140233Z 09009KT 10/M06 A303 RMK A01 T00971062  RH  032%=      5-min Rain = 0
KLE1 140234Z 09010KT 10/M06 A303 RMK A01 T00971062  RH  032%=      5-min Rain = 0
KLE1 140235Z 09009KT 10/M06 A303 RMK A01 T00971062  RH  032%=      5-min Rain = 0
KLE1 140236Z 09009KT 10/M06 A303 RMK A01 T00981062  RH  032%=      5-min Rain = 0
KLE1 140237Z 09009KT 10/M06 A303 RMK A01 T00971063  RH  032%=      5-min Rain = 0
KLE1 140238Z 09009KT 10/M06 A303 RMK A01 T00971062  RH  032%=      5-min Rain = 0
KLE1 140239Z 09010KT 10/M06 A303 RMK A01 T00971062  RH  032%=      5-min Rain = 0
KLE1 140240Z 09010KT 10/M06 A303 RMK A01 T00971062  RH  032%=      5-min Rain = 0
KLE1 140241Z 08010KT 10/M06 A303 RMK A01 T00971062  RH  032%=      5-min Rain = 0
KLE1 140242Z 08009KT 10/M06 A303 RMK A01 T00971062  RH  032%=      5-min Rain = 0
KLE1 140243Z 08009KT 10/M06 A303 RMK A01 T00971062  RH  032%=      5-min Rain = 0
KLE1 140244Z 08009KT 10/M06 A303 RMK A01 T00971062  RH  032%=      5-min Rain = 0
KLE1 140245Z 08009KT 10/M06 A303 RMK A01 T00971062  RH  032%=      5-min Rain = 0
KLE1 140246Z 08009KT 10/M06 A303 RMK A01 T00971061  RH  032%=      5-min Rain = 0
KLE1 140247Z 08009KT 10/M06 A303 RMK A01 T00971062  RH  032%=      5-min Rain = 0
KLE1 140248Z 08009KT 10/M06 A303 RMK A01 T00961062  RH  032%=      5-min Rain = 0
KLE1 140249Z 08009KT 10/M06 A303 RMK A01 T00961061  RH  032%=      5-min Rain = 0
KLE1 140250Z 08009KT 10/M06 A303 RMK A01 T00961062  RH  032%=      5-min Rain = 0
KLE1 140251Z 08010KT 10/M06 A303 RMK A01 T00951062  RH  032%=      5-min Rain = 0
KLE1 140252Z 08009KT 10/M06 A303 RMK A01 T00951062  RH  033%=      5-min Rain = 0
KLE1 140253Z 08010KT 10/M06 A303 RMK A01 T00951062  RH  033%=      5-min Rain = 0
KLE1 140254Z 09009KT 09/M06 A303 RMK A01 T00941062  RH  033%=      5-min Rain = 0
KLE1 140255Z 09010KT 10/M06 A303 RMK A01 T00951062  RH  033%=      5-min Rain = 0
KLE1 140256Z 09009KT 10/M06 A303 RMK A01 T00951061  RH  033%=      5-min Rain = 0
KLE1 140257Z 09009KT 09/M06 A303 RMK A01 T00941062  RH  033%=      5-min Rain = 0
KLE1 140258Z 09009KT 09/M06 A303 RMK A01 T00941062  RH  033%=      5-min Rain = 0
KLE1 140259Z 09009KT 09/M06 A303 RMK A01 T00941062  RH  033%=      5-min Rain = 0
KLE1 140300Z 09009KT 09/M06 A303 RMK A01 T00941062  RH  033%=      5-min Rain = 0
KLE1 140301Z 09009KT 09/M06 A303 RMK A01 T00931062  RH  033%=      5-min Rain = 0
KLE1 140302Z 09009KT 09/M06 A303 RMK A01 T00941062  RH  033%=      5-min Rain = 0
KLE1 140303Z 09009KT 09/M06 A303 RMK A01 T00941062  RH  033%=      5-min Rain = 0
KLE1 140304Z 09009KT 09/M06 A303 RMK A01 T00941061  RH  033%=      5-min Rain = 0
KLE1 140305Z 09009KT 09/M06 A3031 RMK A01 T00941061  RH  033%=      5-min Rain = 0
KLE1 140306Z 09009KT 09/M06 A3031 RMK A01 T00931062  RH  033%=      5-min Rain = 0
KLE1 140307Z 09009KT 09/M06 A3031 RMK A01 T00931061  RH  033%=      5-min Rain = 0
KLE1 140308Z 09008KT 09/M06 A3031 RMK A01 T00931061  RH  033%=      5-min Rain = 0
KLE1 140309Z 08009KT 09/M06 A3031 RMK A01 T00931061  RH  033%=      5-min Rain = 0
KLE1 140310Z 08009KT 09/M06 A3031 RMK A01 T00931061  RH  033%=      5-min Rain = 0
KLE1 140311Z 08009KT 09/M06 A3031 RMK A01 T00931062  RH  033%=      5-min Rain = 0
KLE1 140312Z 08009KT 09/M06 A3031 RMK A01 T00931061  RH  033%=      5-min Rain = 0
KLE1 140313Z 08009KT 09/M06 A3031 RMK A01 T00931061  RH  033%=      5-min Rain = 0
KLE1 140314Z 08009KT 09/M06 A3031 RMK A01 T00931061  RH  033%=      5-min Rain = 0
KLE1 140315Z 08009KT 09/M06 A3031 RMK A01 T00931061  RH  033%=      5-min Rain = 0
KLE1 140316Z 08009KT 09/M06 A3031 RMK A01 T00921061  RH  033%=      5-min Rain = 0
KLE1 140317Z 08009KT 09/M06 A3031 RMK A01 T00911061  RH  034%=      5-min Rain = 0
KLE1 140318Z 08008KT 09/M06 A3031 RMK A01 T00911061  RH  034%=      5-min Rain = 0
KLE1 140319Z 08008KT 09/M06 A3031 RMK A01 T00901061  RH  034%=      5-min Rain = 0
KLE1 140320Z 09009KT 09/M06 A3031 RMK A01 T00901061  RH  034%=      5-min Rain = 0
KLE1 140321Z 09009KT 09/M06 A3031 RMK A01 T00891061  RH  034%=      5-min Rain = 0
KLE1 140322Z 09009KT 09/M06 A3031 RMK A01 T00891061  RH  034%=      5-min Rain = 0
KLE1 140323Z 09009KT 09/M06 A3031 RMK A01 T00881061  RH  034%=      5-min Rain = 0
KLE1 140324Z 09009KT 09/M06 A3031 RMK A01 T00891061  RH  034%=      5-min Rain = 0
KLE1 140325Z 09009KT 09/M06 A3031 RMK A01 T00881061  RH  034%=      5-min Rain = 0
KLE1 140326Z 09009KT 09/M06 A3031 RMK A01 T00881061  RH  034%=      5-min Rain = 0
KLE1 140327Z 09009KT 09/M06 A3031 RMK A01 T00881061  RH  034%=      5-min Rain = 0
KLE1 140328Z 09009KT 09/M06 A3031 RMK A01 T00871062  RH  034%=      5-min Rain = 0
KLE1 140329Z 09009KT 09/M06 A3031 RMK A01 T00871061  RH  034%=      5-min Rain = 0
KLE1 140330Z 09009KT 09/M06 A3031 RMK A01 T00871062  RH  034%=      5-min Rain = 0
KLE1 140331Z 09009KT 09/M06 A3031 RMK A01 T00871062  RH  034%=      5-min Rain = 0
KLE1 140332Z 09009KT 09/M06 A3031 RMK A01 T00871062  RH  034%=      5-min Rain = 0
KLE1 140333Z 09009KT 09/M06 A3031 RMK A01 T00871062  RH  034%=      5-min Rain = 0
KLE1 140334Z 09009KT 09/M06 A3031 RMK A01 T00871062  RH  034%=      5-min Rain = 0
KLE1 140335Z 09009KT 09/M06 A3031 RMK A01 T00871062  RH  034%=      5-min Rain = 0
KLE1 140336Z 09009KT 09/M06 A3031 RMK A01 T00871062  RH  034%=      5-min Rain = 0
KLE1 140337Z 09009KT 09/M06 A3031 RMK A01 T00871062  RH  034%=      5-min Rain = 0
KLE1 140338Z 09009KT 09/M06 A3032 RMK A01 T00871062  RH  034%=      5-min Rain = 0
KLE1 140339Z 09009KT 09/M06 A3032 RMK A01 T00871063  RH  034%=      5-min Rain = 0
KLE1 140340Z 09008KT 09/M06 A3032 RMK A01 T00861063  RH  034%=      5-min Rain = 0
KLE1 140341Z 09008KT 09/M06 A3032 RMK A01 T00861063  RH  034%=      5-min Rain = 0
KLE1 140342Z 09009KT 09/M06 A3032 RMK A01 T00851063  RH  034%=      5-min Rain = 0
KLE1 140343Z 09008KT 09/M06 A3032 RMK A01 T00861063  RH  034%=      5-min Rain = 0
KLE1 140344Z 09008KT 09/M06 A3032 RMK A01 T00851063  RH  034%=      5-min Rain = 0
KLE1 140345Z 09008KT 09/M06 A3032 RMK A01 T00851063  RH  034%=      5-min Rain = 0
KLE1 140346Z 09008KT 08/M06 A3032 RMK A01 T00841064  RH  034%=      5-min Rain = 0
KLE1 140347Z 10008KT 08/M06 A3032 RMK A01 T00841064  RH  035%=      5-min Rain = 0
KLE1 140348Z 10008KT 08/M06 A3032 RMK A01 T00831064  RH  035%=      5-min Rain = 0
KLE1 140349Z 09008KT 08/M06 A3032 RMK A01 T00831064  RH  035%=      5-min Rain = 0
KLE1 140350Z 10007KT 08/M06 A3032 RMK A01 T00821064  RH  035%=      5-min Rain = 0
KLE1 140351Z 10007KT 08/M07 A3032 RMK A01 T00811065  RH  035%=      5-min Rain = 0
KLE1 140352Z 10007KT 08/M07 A3032 RMK A01 T00801065  RH  035%=      5-min Rain = 0
KLE1 140353Z 10007KT 08/M07 A3032 RMK A01 T00791066  RH  035%=      5-min Rain = 0
KLE1 140354Z 10007KT 08/M07 A3032 RMK A01 T00791065  RH  035%=      5-min Rain = 0
KLE1 140355Z 10007KT 08/M07 A3032 RMK A01 T00781066  RH  035%=      5-min Rain = 0
KLE1 140356Z 10007KT 08/M07 A3032 RMK A01 T00771066  RH  036%=      5-min Rain = 0
KLE1 140357Z 10007KT 08/M07 A3032 RMK A01 T00771065  RH  036%=      5-min Rain = 0
KLE1 140358Z 10007KT 08/M07 A3032 RMK A01 T00771065  RH  036%=      5-min Rain = 0
KLE1 140359Z 10007KT 08/M07 A3032 RMK A01 T00771065  RH  036%=      5-min Rain = 0
KLE1 140400Z 10007KT 08/M07 A3032 RMK A01 T00761065  RH  036%=      5-min Rain = 0
KLE1 140401Z 10007KT 08/M07 A3032 RMK A01 T00761065  RH  036%=      5-min Rain = 0
KLE1 140402Z 10007KT 08/M07 A3032 RMK A01 T00751065  RH  036%=      5-min Rain = 0
KLE1 140403Z 10007KT 08/M07 A3032 RMK A01 T00751066  RH  036%=      5-min Rain = 0
KLE1 140404Z 10007KT 08/M07 A3032 RMK A01 T00751066  RH  036%=      5-min Rain = 0
KLE1 140405Z 11007KT 07/M07 A3032 RMK A01 T00741066  RH  036%=      5-min Rain = 0
KLE1 140406Z 11007KT 07/M07 A3032 RMK A01 T00731066  RH  036%=      5-min Rain = 0
KLE1 140407Z 11006KT 07/M07 A3032 RMK A01 T00731066  RH  037%=      5-min Rain = 0
KLE1 140408Z 12006KT 07/M07 A3032 RMK A01 T00721067  RH  037%=      5-min Rain = 0
KLE1 140409Z 12006KT 07/M07 A3032 RMK A01 T00701068  RH  037%=      5-min Rain = 0
KLE1 140410Z 12006KT 07/M07 A3032 RMK A01 T00691068  RH  037%=      5-min Rain = 0
KLE1 140411Z 12006KT 07/M07 A3032 RMK A01 T00681068  RH  037%=      5-min Rain = 0
KLE1 140412Z 12006KT 07/M07 A3032 RMK A01 T00671067  RH  038%=      5-min Rain = 0
KLE1 140413Z 12006KT 07/M07 A3032 RMK A01 T00671068  RH  038%=      5-min Rain = 0
KLE1 140414Z 12006KT 07/M07 A3032 RMK A01 T00671068  RH  038%=      5-min Rain = 0
KLE1 140415Z 12006KT 07/M07 A3032 RMK A01 T00671067  RH  038%=      5-min Rain = 0
KLE1 140416Z 11007KT 07/M07 A3032 RMK A01 T00681067  RH  038%=      5-min Rain = 0
KLE1 140417Z 11007KT 07/M07 A3032 RMK A01 T00681066  RH  038%=      5-min Rain = 0
KLE1 140418Z 12007KT 07/M07 A3032 RMK A01 T00691066  RH  038%=      5-min Rain = 0
KLE1 140419Z 11007KT 07/M07 A3032 RMK A01 T00691065  RH  038%=      5-min Rain = 0
KLE1 140420Z 11007KT 07/M07 A3032 RMK A01 T00701065  RH  038%=      5-min Rain = 0
KLE1 140421Z 11007KT 07/M07 A3032 RMK A01 T00691065  RH  038%=      5-min Rain = 0
KLE1 140422Z 11007KT 07/M07 A3032 RMK A01 T00691065  RH  038%=      5-min Rain = 0
KLE1 140423Z 11007KT 07/M07 A3032 RMK A01 T00691065  RH  038%=      5-min Rain = 0
KLE1 140424Z 11007KT 07/M06 A3032 RMK A01 T00701064  RH  038%=      5-min Rain = 0
KLE1 140425Z 11007KT 07/M06 A3032 RMK A01 T00701064  RH  038%=      5-min Rain = 0
KLE1 140426Z 11007KT 07/M07 A3032 RMK A01 T00691065  RH  038%=      5-min Rain = 0
KLE1 140427Z 11006KT 07/M07 A3032 RMK A01 T00691065  RH  038%=      5-min Rain = 0
KLE1 140428Z 12006KT 07/M07 A3032 RMK A01 T00691065  RH  038%=      5-min Rain = 0
KLE1 140429Z 12006KT 07/M07 A3032 RMK A01 T00681066  RH  038%=      5-min Rain = 0
KLE1 140430Z 12006KT 07/M07 A3032 RMK A01 T00671066  RH  038%=      5-min Rain = 0
KLE1 140431Z 12007KT 07/M07 A3032 RMK A01 T00681065  RH  038%=      5-min Rain = 0
KLE1 140432Z 12007KT 07/M06 A3032 RMK A01 T00681064  RH  038%=      5-min Rain = 0
KLE1 140433Z 13006KT 07/M06 A3032 RMK A01 T00681064  RH  038%=      5-min Rain = 0
KLE1 140434Z 13006KT 07/M06 A3032 RMK A01 T00671064  RH  039%=      5-min Rain = 0
KLE1 140435Z 12006KT 07/M06 A3032 RMK A01 T00671064  RH  039%=      5-min Rain = 0
KLE1 140436Z 12006KT 07/M07 A3032 RMK A01 T00661065  RH  039%=      5-min Rain = 0
KLE1 140437Z 12006KT 07/M07 A3032 RMK A01 T00661065  RH  039%=      5-min Rain = 0
KLE1 140438Z 12006KT 07/M07 A3032 RMK A01 T00661065  RH  039%=      5-min Rain = 0
KLE1 140439Z 12005KT 07/M06 A3032 RMK A01 T00661064  RH  039%=      5-min Rain = 0
KLE1 140440Z 11006KT 07/M06 A3032 RMK A01 T00661064  RH  039%=      5-min Rain = 0
KLE1 140441Z 12006KT 07/M06 A3032 RMK A01 T00661064  RH  039%=      5-min Rain = 0
KLE1 140442Z 12006KT 07/M06 A3032 RMK A01 T00661064  RH  039%=      5-min Rain = 0
KLE1 140443Z 12005KT 07/M06 A3032 RMK A01 T00671063  RH  039%=      5-min Rain = 0
KLE1 140444Z 12006KT 07/M06 A3032 RMK A01 T00661064  RH  039%=      5-min Rain = 0
KLE1 140445Z 12006KT 07/M06 A3032 RMK A01 T00661064  RH  039%=      5-min Rain = 0
KLE1 140446Z 13006KT 07/M06 A3032 RMK A01 T00661064  RH  039%=      5-min Rain = 0
KLE1 140447Z 13006KT 07/M06 A3032 RMK A01 T00651064  RH  039%=      5-min Rain = 0
KLE1 140448Z 14006KT 07/M06 A3032 RMK A01 T00651063  RH  039%=      5-min Rain = 0
KLE1 140449Z 13006KT 07/M06 A3032 RMK A01 T00651064  RH  039%=      5-min Rain = 0
KLE1 140450Z 13006KT 06/M06 A3032 RMK A01 T00641064  RH  039%=      5-min Rain = 0
KLE1 140451Z 13006KT 06/M06 A3032 RMK A01 T00641063  RH  040%=      5-min Rain = 0
KLE1 140452Z 13006KT 06/M06 A3032 RMK A01 T00631064  RH  040%=      5-min Rain = 0
KLE1 140453Z 13006KT 06/M06 A3032 RMK A01 T00631064  RH  040%=      5-min Rain = 0
KLE1 140454Z 13005KT 06/M06 A3032 RMK A01 T00631063  RH  040%=      5-min Rain = 0
KLE1 140455Z 14005KT 06/M06 A3032 RMK A01 T00631063  RH  040%=      5-min Rain = 0
KLE1 140456Z 14005KT 06/M06 A3032 RMK A01 T00621064  RH  040%=      5-min Rain = 0
KLE1 140457Z 14005KT 06/M06 A3032 RMK A01 T00621063  RH  040%=      5-min Rain = 0
KLE1 140458Z 13005KT 06/M06 A3032 RMK A01 T00621063  RH  040%=      5-min Rain = 0
KLE1 140459Z 13005KT 06/M06 A3032 RMK A01 T00621063  RH  040%=      5-min Rain = 0

Page generated in 0.1214 seconds.